<?xml version="1.0" encoding="UTF-8" standalone="no" ?>
<gpx xmlns="http://www.topografix.com/GPX/1/1" xmlns:xsi="http://www.w3.org/2001/XMLSchema-instance" xsi:schemaLocation="http://www.topografix.com/GPX/1/1 http://www.topografix.com/GPX/1/1/gpx.xsd" version="1.1" creator="VisuGPX - https://www.visugpx.com">
  <metadata>
    <name>Cap Taillat-Cap Lardier depuis le col de Collebasse (realisé)</name>
    <desc><![CDATA[Cap Taillat-Cap Lardier 
En boucle, depuis le col de Collebasse]]></desc>
  </metadata>
  <trk>
    <name><![CDATA[2017-05-14 10:25]]></name>
    <desc><![CDATA[<p>Heure de départ: 05/14/2017 10:25<br/>Heure d'arrivée: 05/14/2017 16:36<br/>Distance: 14,1 km (06:10)<br/>Temps déplacement: 03:35<br/>Vitesse moyenne: 2,27 km/h<br/>Vitesse moyenne mouv.: 3,92 km/h<br/>Vitesse Max.: 7,64 km/h<br/>Altitude minimale: -9 m<br/>Altitude maximale: 201 m<br/>Vitesse de montée: 235,1 m/h<br/>Vitesse de descente: -195,2 m/h<br/>Gain d'altitude: 651 m<br/>Perte d'altitude: -637 m<br/>Temps de montée: 02:46<br/>Temps de descente: 03:16<br/></p><hr align="center" width="480" style="height: 2px; width: 517px"/>]]></desc>
    <trkseg>
      <trkpt lat="43.19557" lon="6.60897">
        <ele>116.28</ele>
        <time>2017-05-14T08:25:15Z</time>
      </trkpt>
      <trkpt lat="43.19537" lon="6.60899">
        <ele>133.56</ele>
        <time>2017-05-14T08:28:54Z</time>
      </trkpt>
      <trkpt lat="43.19523" lon="6.60914">
        <ele>142.7</ele>
        <time>2017-05-14T08:29:16Z</time>
      </trkpt>
      <trkpt lat="43.19507" lon="6.60927">
        <ele>145.27</ele>
        <time>2017-05-14T08:29:37Z</time>
      </trkpt>
      <trkpt lat="43.1949" lon="6.60935">
        <ele>144.91</ele>
        <time>2017-05-14T08:30:03Z</time>
      </trkpt>
      <trkpt lat="43.19473" lon="6.60948">
        <ele>139.65</ele>
        <time>2017-05-14T08:30:28Z</time>
      </trkpt>
      <trkpt lat="43.19454" lon="6.60957">
        <ele>141.23</ele>
        <time>2017-05-14T08:31:24Z</time>
      </trkpt>
      <trkpt lat="43.19437" lon="6.6097">
        <ele>139.91</ele>
        <time>2017-05-14T08:31:34Z</time>
      </trkpt>
      <trkpt lat="43.19422" lon="6.60985">
        <ele>146.49</ele>
        <time>2017-05-14T08:31:54Z</time>
      </trkpt>
      <trkpt lat="43.19407" lon="6.60997">
        <ele>155.16</ele>
        <time>2017-05-14T08:32:14Z</time>
      </trkpt>
      <trkpt lat="43.19388" lon="6.60992">
        <ele>160.34</ele>
        <time>2017-05-14T08:32:28Z</time>
      </trkpt>
      <trkpt lat="43.19373" lon="6.6101">
        <ele>159.71</ele>
        <time>2017-05-14T08:33:01Z</time>
      </trkpt>
      <trkpt lat="43.1936" lon="6.6103">
        <ele>161.2</ele>
        <time>2017-05-14T08:33:15Z</time>
      </trkpt>
      <trkpt lat="43.1935" lon="6.61052">
        <ele>170.59</ele>
        <time>2017-05-14T08:33:27Z</time>
      </trkpt>
      <trkpt lat="43.19349" lon="6.61076">
        <ele>165.44</ele>
        <time>2017-05-14T08:33:49Z</time>
      </trkpt>
      <trkpt lat="43.19348" lon="6.61101">
        <ele>167.62</ele>
        <time>2017-05-14T08:34:39Z</time>
      </trkpt>
      <trkpt lat="43.19341" lon="6.61126">
        <ele>169.32</ele>
        <time>2017-05-14T08:34:54Z</time>
      </trkpt>
      <trkpt lat="43.19339" lon="6.61152">
        <ele>170.27</ele>
        <time>2017-05-14T08:35:17Z</time>
      </trkpt>
      <trkpt lat="43.19326" lon="6.61176">
        <ele>179.35</ele>
        <time>2017-05-14T08:35:35Z</time>
      </trkpt>
      <trkpt lat="43.19324" lon="6.61201">
        <ele>184.72</ele>
        <time>2017-05-14T08:35:56Z</time>
      </trkpt>
      <trkpt lat="43.19322" lon="6.61227">
        <ele>184.62</ele>
        <time>2017-05-14T08:36:59Z</time>
      </trkpt>
      <trkpt lat="43.19317" lon="6.61252">
        <ele>192.59</ele>
        <time>2017-05-14T08:37:24Z</time>
      </trkpt>
      <trkpt lat="43.19309" lon="6.61274">
        <ele>192.39</ele>
        <time>2017-05-14T08:37:51Z</time>
      </trkpt>
      <trkpt lat="43.19297" lon="6.61295">
        <ele>197.23</ele>
        <time>2017-05-14T08:38:10Z</time>
      </trkpt>
      <trkpt lat="43.19287" lon="6.61317">
        <ele>197.32</ele>
        <time>2017-05-14T08:38:27Z</time>
      </trkpt>
      <trkpt lat="43.1928" lon="6.61339">
        <ele>197.32</ele>
        <time>2017-05-14T08:38:42Z</time>
      </trkpt>
      <trkpt lat="43.19273" lon="6.61363">
        <ele>198.31</ele>
        <time>2017-05-14T08:38:57Z</time>
      </trkpt>
      <trkpt lat="43.19271" lon="6.61389">
        <ele>200.89</ele>
        <time>2017-05-14T08:39:14Z</time>
      </trkpt>
      <trkpt lat="43.19273" lon="6.61414">
        <ele>201.72</ele>
        <time>2017-05-14T08:39:30Z</time>
      </trkpt>
      <trkpt lat="43.19283" lon="6.61435">
        <ele>196.92</ele>
        <time>2017-05-14T08:39:46Z</time>
      </trkpt>
      <trkpt lat="43.19289" lon="6.6146">
        <ele>196.7</ele>
        <time>2017-05-14T08:40:01Z</time>
      </trkpt>
      <trkpt lat="43.19293" lon="6.61484">
        <ele>192.98</ele>
        <time>2017-05-14T08:40:17Z</time>
      </trkpt>
      <trkpt lat="43.19288" lon="6.61509">
        <ele>194.41</ele>
        <time>2017-05-14T08:40:31Z</time>
      </trkpt>
      <trkpt lat="43.19285" lon="6.61534">
        <ele>195.69</ele>
        <time>2017-05-14T08:40:47Z</time>
      </trkpt>
      <trkpt lat="43.19286" lon="6.61561">
        <ele>195.55</ele>
        <time>2017-05-14T08:41:03Z</time>
      </trkpt>
      <trkpt lat="43.19299" lon="6.6158">
        <ele>195.35</ele>
        <time>2017-05-14T08:41:19Z</time>
      </trkpt>
      <trkpt lat="43.19294" lon="6.61605">
        <ele>193.8</ele>
        <time>2017-05-14T08:43:58Z</time>
      </trkpt>
      <trkpt lat="43.19282" lon="6.61624">
        <ele>193.62</ele>
        <time>2017-05-14T08:44:16Z</time>
      </trkpt>
      <trkpt lat="43.19276" lon="6.61648">
        <ele>189.65</ele>
        <time>2017-05-14T08:44:36Z</time>
      </trkpt>
      <trkpt lat="43.19275" lon="6.61674">
        <ele>184.92</ele>
        <time>2017-05-14T08:44:53Z</time>
      </trkpt>
      <trkpt lat="43.19268" lon="6.61697">
        <ele>181.63</ele>
        <time>2017-05-14T08:45:10Z</time>
      </trkpt>
      <trkpt lat="43.19262" lon="6.61722">
        <ele>177.92</ele>
        <time>2017-05-14T08:45:26Z</time>
      </trkpt>
      <trkpt lat="43.19258" lon="6.61746">
        <ele>179.63</ele>
        <time>2017-05-14T08:45:40Z</time>
      </trkpt>
      <trkpt lat="43.19251" lon="6.6177">
        <ele>176.71</ele>
        <time>2017-05-14T08:45:55Z</time>
      </trkpt>
      <trkpt lat="43.19246" lon="6.61794">
        <ele>173.72</ele>
        <time>2017-05-14T08:46:11Z</time>
      </trkpt>
      <trkpt lat="43.19243" lon="6.61819">
        <ele>171.59</ele>
        <time>2017-05-14T08:46:28Z</time>
      </trkpt>
      <trkpt lat="43.19236" lon="6.61842">
        <ele>171.29</ele>
        <time>2017-05-14T08:46:42Z</time>
      </trkpt>
      <trkpt lat="43.19229" lon="6.61867">
        <ele>169.85</ele>
        <time>2017-05-14T08:46:58Z</time>
      </trkpt>
      <trkpt lat="43.19225" lon="6.61891">
        <ele>165.62</ele>
        <time>2017-05-14T08:47:16Z</time>
      </trkpt>
      <trkpt lat="43.19218" lon="6.61915">
        <ele>160.93</ele>
        <time>2017-05-14T08:47:34Z</time>
      </trkpt>
      <trkpt lat="43.19205" lon="6.61933">
        <ele>159.62</ele>
        <time>2017-05-14T08:47:51Z</time>
      </trkpt>
      <trkpt lat="43.19186" lon="6.61934">
        <ele>161.31</ele>
        <time>2017-05-14T08:48:05Z</time>
      </trkpt>
      <trkpt lat="43.19174" lon="6.61951">
        <ele>155.74</ele>
        <time>2017-05-14T08:48:24Z</time>
      </trkpt>
      <trkpt lat="43.19169" lon="6.61977">
        <ele>150.63</ele>
        <time>2017-05-14T08:48:39Z</time>
      </trkpt>
      <trkpt lat="43.19164" lon="6.62002">
        <ele>148.62</ele>
        <time>2017-05-14T08:48:59Z</time>
      </trkpt>
      <trkpt lat="43.19155" lon="6.62024">
        <ele>147.94</ele>
        <time>2017-05-14T08:49:39Z</time>
      </trkpt>
      <trkpt lat="43.19141" lon="6.62041">
        <ele>145.95</ele>
        <time>2017-05-14T08:50:02Z</time>
      </trkpt>
      <trkpt lat="43.19131" lon="6.62061">
        <ele>143.92</ele>
        <time>2017-05-14T08:50:20Z</time>
      </trkpt>
      <trkpt lat="43.19119" lon="6.62081">
        <ele>143.6</ele>
        <time>2017-05-14T08:50:36Z</time>
      </trkpt>
      <trkpt lat="43.19108" lon="6.62102">
        <ele>144.89</ele>
        <time>2017-05-14T08:50:55Z</time>
      </trkpt>
      <trkpt lat="43.19094" lon="6.6212">
        <ele>145.7</ele>
        <time>2017-05-14T08:51:10Z</time>
      </trkpt>
      <trkpt lat="43.19081" lon="6.62139">
        <ele>146.38</ele>
        <time>2017-05-14T08:51:27Z</time>
      </trkpt>
      <trkpt lat="43.19067" lon="6.62157">
        <ele>143.62</ele>
        <time>2017-05-14T08:51:44Z</time>
      </trkpt>
      <trkpt lat="43.19057" lon="6.6218">
        <ele>143.61</ele>
        <time>2017-05-14T08:51:59Z</time>
      </trkpt>
      <trkpt lat="43.19052" lon="6.62205">
        <ele>138.74</ele>
        <time>2017-05-14T08:52:14Z</time>
      </trkpt>
      <trkpt lat="43.19058" lon="6.62229">
        <ele>136.42</ele>
        <time>2017-05-14T08:52:30Z</time>
      </trkpt>
      <trkpt lat="43.19049" lon="6.62251">
        <ele>133.8</ele>
        <time>2017-05-14T08:52:46Z</time>
      </trkpt>
      <trkpt lat="43.1904" lon="6.62274">
        <ele>132.63</ele>
        <time>2017-05-14T08:53:06Z</time>
      </trkpt>
      <trkpt lat="43.1902" lon="6.62284">
        <ele>132.43</ele>
        <time>2017-05-14T08:53:20Z</time>
      </trkpt>
      <trkpt lat="43.19008" lon="6.62303">
        <ele>137.37</ele>
        <time>2017-05-14T08:53:39Z</time>
      </trkpt>
      <trkpt lat="43.18996" lon="6.62321">
        <ele>138.62</ele>
        <time>2017-05-14T08:53:54Z</time>
      </trkpt>
      <trkpt lat="43.18986" lon="6.62342">
        <ele>147.91</ele>
        <time>2017-05-14T08:54:17Z</time>
      </trkpt>
      <trkpt lat="43.18978" lon="6.62365">
        <ele>149.92</ele>
        <time>2017-05-14T08:54:33Z</time>
      </trkpt>
      <trkpt lat="43.18991" lon="6.62383">
        <ele>144.95</ele>
        <time>2017-05-14T08:54:56Z</time>
      </trkpt>
      <trkpt lat="43.19008" lon="6.62394">
        <ele>147.62</ele>
        <time>2017-05-14T08:55:16Z</time>
      </trkpt>
      <trkpt lat="43.19023" lon="6.62407">
        <ele>144.63</ele>
        <time>2017-05-14T08:55:37Z</time>
      </trkpt>
      <trkpt lat="43.19038" lon="6.62422">
        <ele>140.62</ele>
        <time>2017-05-14T08:55:54Z</time>
      </trkpt>
      <trkpt lat="43.19056" lon="6.62431">
        <ele>143.54</ele>
        <time>2017-05-14T08:56:13Z</time>
      </trkpt>
      <trkpt lat="43.19074" lon="6.62435">
        <ele>131.66</ele>
        <time>2017-05-14T08:56:35Z</time>
      </trkpt>
      <trkpt lat="43.19093" lon="6.62429">
        <ele>126.57</ele>
        <time>2017-05-14T08:56:53Z</time>
      </trkpt>
      <trkpt lat="43.19111" lon="6.62427">
        <ele>128.79</ele>
        <time>2017-05-14T08:57:09Z</time>
      </trkpt>
      <trkpt lat="43.19127" lon="6.62415">
        <ele>124.32</ele>
        <time>2017-05-14T08:57:29Z</time>
      </trkpt>
      <trkpt lat="43.19146" lon="6.62412">
        <ele>126.4</ele>
        <time>2017-05-14T08:57:43Z</time>
      </trkpt>
      <trkpt lat="43.19164" lon="6.62418">
        <ele>128.18</ele>
        <time>2017-05-14T08:57:57Z</time>
      </trkpt>
      <trkpt lat="43.19181" lon="6.62429">
        <ele>114.86</ele>
        <time>2017-05-14T08:58:20Z</time>
      </trkpt>
      <trkpt lat="43.19194" lon="6.62447">
        <ele>111.93</ele>
        <time>2017-05-14T08:58:35Z</time>
      </trkpt>
      <trkpt lat="43.19199" lon="6.62473">
        <ele>110.33</ele>
        <time>2017-05-14T08:58:54Z</time>
      </trkpt>
      <trkpt lat="43.19215" lon="6.62485">
        <ele>106.64</ele>
        <time>2017-05-14T08:59:16Z</time>
      </trkpt>
      <trkpt lat="43.19198" lon="6.62497">
        <ele>110.63</ele>
        <time>2017-05-14T08:59:36Z</time>
      </trkpt>
      <trkpt lat="43.19179" lon="6.62503">
        <ele>105.62</ele>
        <time>2017-05-14T08:59:58Z</time>
      </trkpt>
      <trkpt lat="43.19165" lon="6.6252">
        <ele>100.15</ele>
        <time>2017-05-14T09:00:12Z</time>
      </trkpt>
      <trkpt lat="43.19147" lon="6.62534">
        <ele>96.62</ele>
        <time>2017-05-14T09:00:29Z</time>
      </trkpt>
      <trkpt lat="43.19133" lon="6.62554">
        <ele>97.09</ele>
        <time>2017-05-14T09:00:42Z</time>
      </trkpt>
      <trkpt lat="43.19122" lon="6.62574">
        <ele>97.72</ele>
        <time>2017-05-14T09:01:00Z</time>
      </trkpt>
      <trkpt lat="43.19107" lon="6.62591">
        <ele>98.47</ele>
        <time>2017-05-14T09:01:31Z</time>
      </trkpt>
      <trkpt lat="43.19094" lon="6.6261">
        <ele>100.12</ele>
        <time>2017-05-14T09:01:42Z</time>
      </trkpt>
      <trkpt lat="43.19078" lon="6.62622">
        <ele>98.41</ele>
        <time>2017-05-14T09:01:57Z</time>
      </trkpt>
      <trkpt lat="43.1906" lon="6.62628">
        <ele>96.67</ele>
        <time>2017-05-14T09:02:13Z</time>
      </trkpt>
      <trkpt lat="43.19041" lon="6.62634">
        <ele>96.41</ele>
        <time>2017-05-14T09:02:29Z</time>
      </trkpt>
      <trkpt lat="43.1902" lon="6.62632">
        <ele>103.72</ele>
        <time>2017-05-14T09:04:03Z</time>
      </trkpt>
      <trkpt lat="43.19007" lon="6.62613">
        <ele>97.83</ele>
        <time>2017-05-14T09:04:16Z</time>
      </trkpt>
      <trkpt lat="43.1899" lon="6.62622">
        <ele>80.3</ele>
        <time>2017-05-14T09:04:44Z</time>
      </trkpt>
      <trkpt lat="43.18986" lon="6.62647">
        <ele>72.24</ele>
        <time>2017-05-14T09:05:09Z</time>
      </trkpt>
      <trkpt lat="43.18976" lon="6.62669">
        <ele>76.29</ele>
        <time>2017-05-14T09:05:25Z</time>
      </trkpt>
      <trkpt lat="43.18977" lon="6.62693">
        <ele>72.94</ele>
        <time>2017-05-14T09:05:43Z</time>
      </trkpt>
      <trkpt lat="43.18989" lon="6.62712">
        <ele>67.65</ele>
        <time>2017-05-14T09:05:58Z</time>
      </trkpt>
      <trkpt lat="43.18972" lon="6.62723">
        <ele>68.4</ele>
        <time>2017-05-14T09:06:25Z</time>
      </trkpt>
      <trkpt lat="43.18954" lon="6.62719">
        <ele>70.43</ele>
        <time>2017-05-14T09:06:45Z</time>
      </trkpt>
      <trkpt lat="43.18936" lon="6.6272">
        <ele>64.65</ele>
        <time>2017-05-14T09:07:17Z</time>
      </trkpt>
      <trkpt lat="43.18917" lon="6.62732">
        <ele>66.16</ele>
        <time>2017-05-14T09:07:31Z</time>
      </trkpt>
      <trkpt lat="43.18902" lon="6.62746">
        <ele>64.03</ele>
        <time>2017-05-14T09:07:56Z</time>
      </trkpt>
      <trkpt lat="43.18887" lon="6.62762">
        <ele>63.22</ele>
        <time>2017-05-14T09:08:12Z</time>
      </trkpt>
      <trkpt lat="43.18875" lon="6.62782">
        <ele>66.28</ele>
        <time>2017-05-14T09:08:25Z</time>
      </trkpt>
      <trkpt lat="43.18858" lon="6.62792">
        <ele>65.35</ele>
        <time>2017-05-14T09:08:47Z</time>
      </trkpt>
      <trkpt lat="43.18847" lon="6.62812">
        <ele>59.56</ele>
        <time>2017-05-14T09:08:58Z</time>
      </trkpt>
      <trkpt lat="43.18831" lon="6.62824">
        <ele>65.45</ele>
        <time>2017-05-14T09:09:20Z</time>
      </trkpt>
      <trkpt lat="43.18813" lon="6.62832">
        <ele>63.69</ele>
        <time>2017-05-14T09:09:33Z</time>
      </trkpt>
      <trkpt lat="43.18797" lon="6.62844">
        <ele>63.81</ele>
        <time>2017-05-14T09:10:06Z</time>
      </trkpt>
      <trkpt lat="43.18779" lon="6.62852">
        <ele>57.71</ele>
        <time>2017-05-14T09:10:20Z</time>
      </trkpt>
      <trkpt lat="43.1876" lon="6.62855">
        <ele>57.54</ele>
        <time>2017-05-14T09:10:36Z</time>
      </trkpt>
      <trkpt lat="43.18742" lon="6.62857">
        <ele>55.97</ele>
        <time>2017-05-14T09:10:53Z</time>
      </trkpt>
      <trkpt lat="43.18728" lon="6.6284">
        <ele>57.65</ele>
        <time>2017-05-14T09:11:08Z</time>
      </trkpt>
      <trkpt lat="43.1871" lon="6.6284">
        <ele>48.59</ele>
        <time>2017-05-14T09:11:36Z</time>
      </trkpt>
      <trkpt lat="43.18692" lon="6.62861">
        <ele>48.86</ele>
        <time>2017-05-14T09:11:52Z</time>
      </trkpt>
      <trkpt lat="43.18672" lon="6.62864">
        <ele>54.3</ele>
        <time>2017-05-14T09:12:10Z</time>
      </trkpt>
      <trkpt lat="43.18652" lon="6.62866">
        <ele>56.93</ele>
        <time>2017-05-14T09:12:27Z</time>
      </trkpt>
      <trkpt lat="43.18634" lon="6.62868">
        <ele>56.03</ele>
        <time>2017-05-14T09:12:36Z</time>
      </trkpt>
      <trkpt lat="43.18622" lon="6.62887">
        <ele>49.21</ele>
        <time>2017-05-14T09:12:56Z</time>
      </trkpt>
      <trkpt lat="43.18606" lon="6.62898">
        <ele>48.62</ele>
        <time>2017-05-14T09:13:14Z</time>
      </trkpt>
      <trkpt lat="43.18588" lon="6.62906">
        <ele>47.32</ele>
        <time>2017-05-14T09:13:30Z</time>
      </trkpt>
      <trkpt lat="43.18571" lon="6.62917">
        <ele>43.85</ele>
        <time>2017-05-14T09:13:46Z</time>
      </trkpt>
      <trkpt lat="43.18552" lon="6.62913">
        <ele>45.25</ele>
        <time>2017-05-14T09:14:00Z</time>
      </trkpt>
      <trkpt lat="43.18535" lon="6.62927">
        <ele>36.11</ele>
        <time>2017-05-14T09:14:17Z</time>
      </trkpt>
      <trkpt lat="43.18516" lon="6.62928">
        <ele>37.99</ele>
        <time>2017-05-14T09:15:04Z</time>
      </trkpt>
      <trkpt lat="43.18499" lon="6.62939">
        <ele>35.34</ele>
        <time>2017-05-14T09:15:17Z</time>
      </trkpt>
      <trkpt lat="43.1848" lon="6.62935">
        <ele>40.52</ele>
        <time>2017-05-14T09:15:31Z</time>
      </trkpt>
      <trkpt lat="43.18462" lon="6.62936">
        <ele>41.6</ele>
        <time>2017-05-14T09:15:46Z</time>
      </trkpt>
      <trkpt lat="43.18445" lon="6.62945">
        <ele>41.66</ele>
        <time>2017-05-14T09:16:01Z</time>
      </trkpt>
      <trkpt lat="43.18426" lon="6.6295">
        <ele>38.04</ele>
        <time>2017-05-14T09:16:35Z</time>
      </trkpt>
      <trkpt lat="43.18409" lon="6.62943">
        <ele>32.65</ele>
        <time>2017-05-14T09:17:05Z</time>
      </trkpt>
      <trkpt lat="43.1839" lon="6.62947">
        <ele>31.28</ele>
        <time>2017-05-14T09:17:17Z</time>
      </trkpt>
      <trkpt lat="43.18372" lon="6.62945">
        <ele>24.01</ele>
        <time>2017-05-14T09:17:32Z</time>
      </trkpt>
      <trkpt lat="43.18354" lon="6.62943">
        <ele>22.74</ele>
        <time>2017-05-14T09:18:08Z</time>
      </trkpt>
      <trkpt lat="43.18336" lon="6.62938">
        <ele>24.83</ele>
        <time>2017-05-14T09:18:17Z</time>
      </trkpt>
      <trkpt lat="43.18318" lon="6.62939">
        <ele>23.62</ele>
        <time>2017-05-14T09:18:30Z</time>
      </trkpt>
      <trkpt lat="43.18301" lon="6.62925">
        <ele>23.99</ele>
        <time>2017-05-14T09:18:45Z</time>
      </trkpt>
      <trkpt lat="43.18282" lon="6.62921">
        <ele>22.06</ele>
        <time>2017-05-14T09:19:05Z</time>
      </trkpt>
      <trkpt lat="43.18267" lon="6.62934">
        <ele>28.71</ele>
        <time>2017-05-14T09:20:23Z</time>
      </trkpt>
      <trkpt lat="43.18249" lon="6.62924">
        <ele>30.38</ele>
        <time>2017-05-14T09:20:47Z</time>
      </trkpt>
      <trkpt lat="43.1823" lon="6.62931">
        <ele>28.41</ele>
        <time>2017-05-14T09:20:59Z</time>
      </trkpt>
      <trkpt lat="43.18222" lon="6.62955">
        <ele>28.92</ele>
        <time>2017-05-14T09:21:23Z</time>
      </trkpt>
      <trkpt lat="43.18204" lon="6.62959">
        <ele>29.41</ele>
        <time>2017-05-14T09:21:38Z</time>
      </trkpt>
      <trkpt lat="43.18187" lon="6.62968">
        <ele>31.57</ele>
        <time>2017-05-14T09:21:58Z</time>
      </trkpt>
      <trkpt lat="43.18169" lon="6.62981">
        <ele>32.9</ele>
        <time>2017-05-14T09:22:17Z</time>
      </trkpt>
      <trkpt lat="43.18156" lon="6.62998">
        <ele>32.01</ele>
        <time>2017-05-14T09:22:42Z</time>
      </trkpt>
      <trkpt lat="43.18143" lon="6.63019">
        <ele>30.41</ele>
        <time>2017-05-14T09:22:54Z</time>
      </trkpt>
      <trkpt lat="43.18134" lon="6.63042">
        <ele>39.21</ele>
        <time>2017-05-14T09:23:09Z</time>
      </trkpt>
      <trkpt lat="43.18128" lon="6.63065">
        <ele>39.61</ele>
        <time>2017-05-14T09:23:24Z</time>
      </trkpt>
      <trkpt lat="43.18119" lon="6.63088">
        <ele>39.67</ele>
        <time>2017-05-14T09:23:39Z</time>
      </trkpt>
      <trkpt lat="43.18108" lon="6.63108">
        <ele>40.87</ele>
        <time>2017-05-14T09:23:55Z</time>
      </trkpt>
      <trkpt lat="43.18097" lon="6.63129">
        <ele>43.61</ele>
        <time>2017-05-14T09:24:13Z</time>
      </trkpt>
      <trkpt lat="43.18089" lon="6.63153">
        <ele>45.59</ele>
        <time>2017-05-14T09:24:38Z</time>
      </trkpt>
      <trkpt lat="43.18078" lon="6.63175">
        <ele>46.69</ele>
        <time>2017-05-14T09:24:53Z</time>
      </trkpt>
      <trkpt lat="43.18069" lon="6.63197">
        <ele>45.61</ele>
        <time>2017-05-14T09:25:22Z</time>
      </trkpt>
      <trkpt lat="43.18055" lon="6.63215">
        <ele>51.29</ele>
        <time>2017-05-14T09:25:38Z</time>
      </trkpt>
      <trkpt lat="43.18039" lon="6.63229">
        <ele>50.55</ele>
        <time>2017-05-14T09:25:54Z</time>
      </trkpt>
      <trkpt lat="43.18025" lon="6.63244">
        <ele>51.61</ele>
        <time>2017-05-14T09:26:15Z</time>
      </trkpt>
      <trkpt lat="43.18008" lon="6.63256">
        <ele>55.59</ele>
        <time>2017-05-14T09:26:32Z</time>
      </trkpt>
      <trkpt lat="43.1799" lon="6.63262">
        <ele>56.41</ele>
        <time>2017-05-14T09:26:49Z</time>
      </trkpt>
      <trkpt lat="43.17976" lon="6.63279">
        <ele>49.65</ele>
        <time>2017-05-14T09:27:03Z</time>
      </trkpt>
      <trkpt lat="43.1796" lon="6.63291">
        <ele>45.84</ele>
        <time>2017-05-14T09:27:21Z</time>
      </trkpt>
      <trkpt lat="43.17946" lon="6.63308">
        <ele>44.63</ele>
        <time>2017-05-14T09:27:36Z</time>
      </trkpt>
      <trkpt lat="43.17928" lon="6.63319">
        <ele>43.86</ele>
        <time>2017-05-14T09:27:55Z</time>
      </trkpt>
      <trkpt lat="43.17914" lon="6.63336">
        <ele>42.62</ele>
        <time>2017-05-14T09:28:09Z</time>
      </trkpt>
      <trkpt lat="43.17901" lon="6.63354">
        <ele>46.34</ele>
        <time>2017-05-14T09:28:24Z</time>
      </trkpt>
      <trkpt lat="43.17889" lon="6.63375">
        <ele>47.62</ele>
        <time>2017-05-14T09:28:41Z</time>
      </trkpt>
      <trkpt lat="43.17873" lon="6.63389">
        <ele>54.22</ele>
        <time>2017-05-14T09:29:00Z</time>
      </trkpt>
      <trkpt lat="43.17856" lon="6.63395">
        <ele>53.65</ele>
        <time>2017-05-14T09:29:13Z</time>
      </trkpt>
      <trkpt lat="43.17843" lon="6.63414">
        <ele>53.95</ele>
        <time>2017-05-14T09:29:31Z</time>
      </trkpt>
      <trkpt lat="43.17828" lon="6.63431">
        <ele>52.98</ele>
        <time>2017-05-14T09:29:40Z</time>
      </trkpt>
      <trkpt lat="43.17813" lon="6.63448">
        <ele>52.68</ele>
        <time>2017-05-14T09:30:04Z</time>
      </trkpt>
      <trkpt lat="43.17797" lon="6.63467">
        <ele>45.41</ele>
        <time>2017-05-14T09:30:18Z</time>
      </trkpt>
      <trkpt lat="43.17775" lon="6.6347">
        <ele>53.1</ele>
        <time>2017-05-14T09:32:55Z</time>
      </trkpt>
      <trkpt lat="43.17758" lon="6.63483">
        <ele>55.22</ele>
        <time>2017-05-14T09:33:09Z</time>
      </trkpt>
      <trkpt lat="43.17744" lon="6.63499">
        <ele>49.92</ele>
        <time>2017-05-14T09:33:23Z</time>
      </trkpt>
      <trkpt lat="43.17733" lon="6.6352">
        <ele>45.35</ele>
        <time>2017-05-14T09:33:38Z</time>
      </trkpt>
      <trkpt lat="43.17724" lon="6.63542">
        <ele>43.65</ele>
        <time>2017-05-14T09:33:53Z</time>
      </trkpt>
      <trkpt lat="43.17715" lon="6.63564">
        <ele>45.59</ele>
        <time>2017-05-14T09:34:11Z</time>
      </trkpt>
      <trkpt lat="43.17701" lon="6.63581">
        <ele>38.48</ele>
        <time>2017-05-14T09:34:25Z</time>
      </trkpt>
      <trkpt lat="43.17692" lon="6.63603">
        <ele>36.82</ele>
        <time>2017-05-14T09:34:42Z</time>
      </trkpt>
      <trkpt lat="43.17683" lon="6.63625">
        <ele>35.56</ele>
        <time>2017-05-14T09:35:01Z</time>
      </trkpt>
      <trkpt lat="43.17675" lon="6.63647">
        <ele>35.62</ele>
        <time>2017-05-14T09:35:18Z</time>
      </trkpt>
      <trkpt lat="43.17664" lon="6.63667">
        <ele>32.64</ele>
        <time>2017-05-14T09:35:36Z</time>
      </trkpt>
      <trkpt lat="43.17653" lon="6.63687">
        <ele>28.92</ele>
        <time>2017-05-14T09:35:50Z</time>
      </trkpt>
      <trkpt lat="43.17652" lon="6.63712">
        <ele>23.74</ele>
        <time>2017-05-14T09:36:03Z</time>
      </trkpt>
      <trkpt lat="43.17646" lon="6.63736">
        <ele>26.62</ele>
        <time>2017-05-14T09:36:18Z</time>
      </trkpt>
      <trkpt lat="43.17644" lon="6.63762">
        <ele>23.69</ele>
        <time>2017-05-14T09:36:32Z</time>
      </trkpt>
      <trkpt lat="43.17643" lon="6.63787">
        <ele>20.54</ele>
        <time>2017-05-14T09:36:48Z</time>
      </trkpt>
      <trkpt lat="43.17634" lon="6.63809">
        <ele>23.97</ele>
        <time>2017-05-14T09:37:03Z</time>
      </trkpt>
      <trkpt lat="43.17628" lon="6.63833">
        <ele>20.73</ele>
        <time>2017-05-14T09:37:19Z</time>
      </trkpt>
      <trkpt lat="43.17619" lon="6.63855">
        <ele>20.43</ele>
        <time>2017-05-14T09:37:39Z</time>
      </trkpt>
      <trkpt lat="43.17608" lon="6.63876">
        <ele>18.62</ele>
        <time>2017-05-14T09:37:56Z</time>
      </trkpt>
      <trkpt lat="43.17596" lon="6.63895">
        <ele>16.71</ele>
        <time>2017-05-14T09:38:14Z</time>
      </trkpt>
      <trkpt lat="43.17588" lon="6.63918">
        <ele>16.61</ele>
        <time>2017-05-14T09:38:45Z</time>
      </trkpt>
      <trkpt lat="43.17577" lon="6.6394">
        <ele>10.25</ele>
        <time>2017-05-14T09:39:05Z</time>
      </trkpt>
      <trkpt lat="43.17561" lon="6.63951">
        <ele>10.5</ele>
        <time>2017-05-14T09:39:25Z</time>
      </trkpt>
      <trkpt lat="43.17554" lon="6.63975">
        <ele>2.92</ele>
        <time>2017-05-14T09:39:41Z</time>
      </trkpt>
      <trkpt lat="43.17546" lon="6.63997">
        <ele>2.43</ele>
        <time>2017-05-14T09:39:58Z</time>
      </trkpt>
      <trkpt lat="43.17527" lon="6.63991">
        <ele>4.59</ele>
        <time>2017-05-14T09:40:20Z</time>
      </trkpt>
      <trkpt lat="43.17509" lon="6.63987">
        <ele>2.69</ele>
        <time>2017-05-14T09:40:37Z</time>
      </trkpt>
      <trkpt lat="43.17491" lon="6.63979">
        <ele>2.95</ele>
        <time>2017-05-14T09:41:26Z</time>
      </trkpt>
      <trkpt lat="43.17474" lon="6.63986">
        <ele>-1.76</ele>
        <time>2017-05-14T09:41:37Z</time>
      </trkpt>
      <trkpt lat="43.17455" lon="6.63987">
        <ele>-1.31</ele>
        <time>2017-05-14T09:41:50Z</time>
      </trkpt>
      <trkpt lat="43.17437" lon="6.63984">
        <ele>2.92</ele>
        <time>2017-05-14T09:42:12Z</time>
      </trkpt>
      <trkpt lat="43.1742" lon="6.63972">
        <ele>6.62</ele>
        <time>2017-05-14T09:42:34Z</time>
      </trkpt>
      <trkpt lat="43.17402" lon="6.63968">
        <ele>2.02</ele>
        <time>2017-05-14T09:42:50Z</time>
      </trkpt>
      <trkpt lat="43.17387" lon="6.63951">
        <ele>5.32</ele>
        <time>2017-05-14T09:43:05Z</time>
      </trkpt>
      <trkpt lat="43.1737" lon="6.63942">
        <ele>2.81</ele>
        <time>2017-05-14T09:43:24Z</time>
      </trkpt>
      <trkpt lat="43.17355" lon="6.63927">
        <ele>4.62</ele>
        <time>2017-05-14T09:43:39Z</time>
      </trkpt>
      <trkpt lat="43.17338" lon="6.63917">
        <ele>2.42</ele>
        <time>2017-05-14T09:43:54Z</time>
      </trkpt>
      <trkpt lat="43.1732" lon="6.63919">
        <ele>0.92</ele>
        <time>2017-05-14T09:44:10Z</time>
      </trkpt>
      <trkpt lat="43.17304" lon="6.63933">
        <ele>0.56</ele>
        <time>2017-05-14T09:44:28Z</time>
      </trkpt>
      <trkpt lat="43.17287" lon="6.63946">
        <ele>0.16</ele>
        <time>2017-05-14T09:44:52Z</time>
      </trkpt>
      <trkpt lat="43.17271" lon="6.63959">
        <ele>-2.41</ele>
        <time>2017-05-14T09:45:11Z</time>
      </trkpt>
      <trkpt lat="43.17255" lon="6.6397">
        <ele>2.53</ele>
        <time>2017-05-14T09:45:32Z</time>
      </trkpt>
      <trkpt lat="43.17239" lon="6.63983">
        <ele>6.41</ele>
        <time>2017-05-14T09:45:53Z</time>
      </trkpt>
      <trkpt lat="43.17229" lon="6.64004">
        <ele>5.62</ele>
        <time>2017-05-14T09:46:16Z</time>
      </trkpt>
      <trkpt lat="43.17215" lon="6.6402">
        <ele>4.68</ele>
        <time>2017-05-14T09:46:35Z</time>
      </trkpt>
      <trkpt lat="43.17216" lon="6.64044">
        <ele>1.62</ele>
        <time>2017-05-14T09:47:04Z</time>
      </trkpt>
      <trkpt lat="43.1722" lon="6.6407">
        <ele>-1.38</ele>
        <time>2017-05-14T09:47:22Z</time>
      </trkpt>
      <trkpt lat="43.17216" lon="6.64096">
        <ele>2.62</ele>
        <time>2017-05-14T09:48:04Z</time>
      </trkpt>
      <trkpt lat="43.17207" lon="6.64117">
        <ele>6.23</ele>
        <time>2017-05-14T09:48:14Z</time>
      </trkpt>
      <trkpt lat="43.17198" lon="6.6414">
        <ele>4.93</ele>
        <time>2017-05-14T09:48:32Z</time>
      </trkpt>
      <trkpt lat="43.17194" lon="6.64165">
        <ele>8.62</ele>
        <time>2017-05-14T09:48:57Z</time>
      </trkpt>
      <trkpt lat="43.17175" lon="6.64172">
        <ele>11.5</ele>
        <time>2017-05-14T09:49:18Z</time>
      </trkpt>
      <trkpt lat="43.17159" lon="6.64186">
        <ele>11.59</ele>
        <time>2017-05-14T09:49:41Z</time>
      </trkpt>
      <trkpt lat="43.17142" lon="6.64202">
        <ele>12.46</ele>
        <time>2017-05-14T09:49:55Z</time>
      </trkpt>
      <trkpt lat="43.17129" lon="6.6422">
        <ele>12.67</ele>
        <time>2017-05-14T09:50:20Z</time>
      </trkpt>
      <trkpt lat="43.17115" lon="6.64237">
        <ele>14.55</ele>
        <time>2017-05-14T09:51:02Z</time>
      </trkpt>
      <trkpt lat="43.17116" lon="6.64261">
        <ele>24.04</ele>
        <time>2017-05-14T09:51:49Z</time>
      </trkpt>
      <trkpt lat="43.1711" lon="6.64285">
        <ele>34.58</ele>
        <time>2017-05-14T09:52:54Z</time>
      </trkpt>
      <trkpt lat="43.17108" lon="6.6431">
        <ele>39.33</ele>
        <time>2017-05-14T09:53:27Z</time>
      </trkpt>
      <trkpt lat="43.17098" lon="6.6433">
        <ele>47.74</ele>
        <time>2017-05-14T09:54:44Z</time>
      </trkpt>
      <trkpt lat="43.17083" lon="6.64346">
        <ele>63.44</ele>
        <time>2017-05-14T09:59:29Z</time>
      </trkpt>
      <trkpt lat="43.17065" lon="6.64361">
        <ele>56.91</ele>
        <time>2017-05-14T09:59:49Z</time>
      </trkpt>
      <trkpt lat="43.17049" lon="6.64376">
        <ele>58.61</ele>
        <time>2017-05-14T10:00:14Z</time>
      </trkpt>
      <trkpt lat="43.17032" lon="6.64386">
        <ele>54.68</ele>
        <time>2017-05-14T10:00:48Z</time>
      </trkpt>
      <trkpt lat="43.1702" lon="6.64404">
        <ele>54.74</ele>
        <time>2017-05-14T10:01:08Z</time>
      </trkpt>
      <trkpt lat="43.17004" lon="6.64415">
        <ele>50.65</ele>
        <time>2017-05-14T10:01:36Z</time>
      </trkpt>
      <trkpt lat="43.16987" lon="6.64425">
        <ele>46.59</ele>
        <time>2017-05-14T10:02:26Z</time>
      </trkpt>
      <trkpt lat="43.16973" lon="6.64444">
        <ele>39.74</ele>
        <time>2017-05-14T10:02:42Z</time>
      </trkpt>
      <trkpt lat="43.16962" lon="6.64464">
        <ele>41.23</ele>
        <time>2017-05-14T10:02:59Z</time>
      </trkpt>
      <trkpt lat="43.16948" lon="6.64481">
        <ele>43.64</ele>
        <time>2017-05-14T10:03:27Z</time>
      </trkpt>
      <trkpt lat="43.16934" lon="6.64496">
        <ele>49.47</ele>
        <time>2017-05-14T10:03:56Z</time>
      </trkpt>
      <trkpt lat="43.16934" lon="6.64521">
        <ele>54.41</ele>
        <time>2017-05-14T10:04:32Z</time>
      </trkpt>
      <trkpt lat="43.16922" lon="6.64541">
        <ele>58.53</ele>
        <time>2017-05-14T10:04:55Z</time>
      </trkpt>
      <trkpt lat="43.16907" lon="6.64554">
        <ele>59.65</ele>
        <time>2017-05-14T10:05:18Z</time>
      </trkpt>
      <trkpt lat="43.16896" lon="6.64575">
        <ele>58.71</ele>
        <time>2017-05-14T10:05:40Z</time>
      </trkpt>
      <trkpt lat="43.16906" lon="6.64554">
        <ele>59.56</ele>
        <time>2017-05-14T10:58:11Z</time>
      </trkpt>
      <trkpt lat="43.16922" lon="6.64541">
        <ele>60.24</ele>
        <time>2017-05-14T10:58:35Z</time>
      </trkpt>
      <trkpt lat="43.16934" lon="6.64522">
        <ele>60.71</ele>
        <time>2017-05-14T10:58:56Z</time>
      </trkpt>
      <trkpt lat="43.16946" lon="6.64501">
        <ele>53.04</ele>
        <time>2017-05-14T10:59:25Z</time>
      </trkpt>
      <trkpt lat="43.16949" lon="6.64475">
        <ele>46.62</ele>
        <time>2017-05-14T11:00:20Z</time>
      </trkpt>
      <trkpt lat="43.1696" lon="6.64455">
        <ele>43.29</ele>
        <time>2017-05-14T11:00:57Z</time>
      </trkpt>
      <trkpt lat="43.1697" lon="6.64433">
        <ele>44.62</ele>
        <time>2017-05-14T11:01:11Z</time>
      </trkpt>
      <trkpt lat="43.16988" lon="6.64425">
        <ele>41.63</ele>
        <time>2017-05-14T11:01:29Z</time>
      </trkpt>
      <trkpt lat="43.17004" lon="6.64413">
        <ele>48.69</ele>
        <time>2017-05-14T11:02:17Z</time>
      </trkpt>
      <trkpt lat="43.1702" lon="6.64402">
        <ele>54.32</ele>
        <time>2017-05-14T11:02:41Z</time>
      </trkpt>
      <trkpt lat="43.17033" lon="6.64385">
        <ele>54.58</ele>
        <time>2017-05-14T11:03:14Z</time>
      </trkpt>
      <trkpt lat="43.17048" lon="6.64369">
        <ele>53.62</ele>
        <time>2017-05-14T11:04:09Z</time>
      </trkpt>
      <trkpt lat="43.17065" lon="6.64357">
        <ele>52.73</ele>
        <time>2017-05-14T11:04:25Z</time>
      </trkpt>
      <trkpt lat="43.17082" lon="6.64348">
        <ele>58.63</ele>
        <time>2017-05-14T11:04:54Z</time>
      </trkpt>
      <trkpt lat="43.17094" lon="6.64328">
        <ele>54.83</ele>
        <time>2017-05-14T11:06:10Z</time>
      </trkpt>
      <trkpt lat="43.17102" lon="6.64303">
        <ele>42.49</ele>
        <time>2017-05-14T11:06:55Z</time>
      </trkpt>
      <trkpt lat="43.17113" lon="6.64283">
        <ele>29.62</ele>
        <time>2017-05-14T11:08:15Z</time>
      </trkpt>
      <trkpt lat="43.17112" lon="6.64258">
        <ele>24.52</ele>
        <time>2017-05-14T11:08:37Z</time>
      </trkpt>
      <trkpt lat="43.1712" lon="6.64236">
        <ele>19.6</ele>
        <time>2017-05-14T11:09:05Z</time>
      </trkpt>
      <trkpt lat="43.17132" lon="6.64217">
        <ele>16.75</ele>
        <time>2017-05-14T11:09:41Z</time>
      </trkpt>
      <trkpt lat="43.17147" lon="6.64202">
        <ele>15.41</ele>
        <time>2017-05-14T11:10:12Z</time>
      </trkpt>
      <trkpt lat="43.1716" lon="6.64184">
        <ele>13.1</ele>
        <time>2017-05-14T11:10:52Z</time>
      </trkpt>
      <trkpt lat="43.17177" lon="6.64169">
        <ele>13.06</ele>
        <time>2017-05-14T11:11:05Z</time>
      </trkpt>
      <trkpt lat="43.17193" lon="6.64156">
        <ele>15.92</ele>
        <time>2017-05-14T11:11:26Z</time>
      </trkpt>
      <trkpt lat="43.17202" lon="6.64132">
        <ele>12.01</ele>
        <time>2017-05-14T11:12:12Z</time>
      </trkpt>
      <trkpt lat="43.17209" lon="6.64107">
        <ele>10.7</ele>
        <time>2017-05-14T11:12:24Z</time>
      </trkpt>
      <trkpt lat="43.17215" lon="6.64081">
        <ele>7.74</ele>
        <time>2017-05-14T11:12:37Z</time>
      </trkpt>
      <trkpt lat="43.17217" lon="6.64056">
        <ele>4.6</ele>
        <time>2017-05-14T11:12:53Z</time>
      </trkpt>
      <trkpt lat="43.17211" lon="6.64031">
        <ele>6.53</ele>
        <time>2017-05-14T11:13:13Z</time>
      </trkpt>
      <trkpt lat="43.17219" lon="6.64007">
        <ele>3.05</ele>
        <time>2017-05-14T11:13:29Z</time>
      </trkpt>
      <trkpt lat="43.17232" lon="6.63989">
        <ele>2.69</ele>
        <time>2017-05-14T11:13:48Z</time>
      </trkpt>
      <trkpt lat="43.17239" lon="6.63966">
        <ele>0.65</ele>
        <time>2017-05-14T11:14:08Z</time>
      </trkpt>
      <trkpt lat="43.17246" lon="6.6394">
        <ele>-2.2</ele>
        <time>2017-05-14T11:14:43Z</time>
      </trkpt>
      <trkpt lat="43.17253" lon="6.63917">
        <ele>3.38</ele>
        <time>2017-05-14T11:14:58Z</time>
      </trkpt>
      <trkpt lat="43.17267" lon="6.63901">
        <ele>2.11</ele>
        <time>2017-05-14T11:15:24Z</time>
      </trkpt>
      <trkpt lat="43.17266" lon="6.63876">
        <ele>6.27</ele>
        <time>2017-05-14T11:16:05Z</time>
      </trkpt>
      <trkpt lat="43.17258" lon="6.63854">
        <ele>6.02</ele>
        <time>2017-05-14T11:16:32Z</time>
      </trkpt>
      <trkpt lat="43.17249" lon="6.63831">
        <ele>9.28</ele>
        <time>2017-05-14T11:16:49Z</time>
      </trkpt>
      <trkpt lat="43.17253" lon="6.63806">
        <ele>8.15</ele>
        <time>2017-05-14T11:17:44Z</time>
      </trkpt>
      <trkpt lat="43.17249" lon="6.63782">
        <ele>8.71</ele>
        <time>2017-05-14T11:18:00Z</time>
      </trkpt>
      <trkpt lat="43.1725" lon="6.63755">
        <ele>2.35</ele>
        <time>2017-05-14T11:18:32Z</time>
      </trkpt>
      <trkpt lat="43.17256" lon="6.63731">
        <ele>1.63</ele>
        <time>2017-05-14T11:18:52Z</time>
      </trkpt>
      <trkpt lat="43.17268" lon="6.63709">
        <ele>-0.24</ele>
        <time>2017-05-14T11:19:14Z</time>
      </trkpt>
      <trkpt lat="43.1727" lon="6.63684">
        <ele>2.02</ele>
        <time>2017-05-14T11:20:33Z</time>
      </trkpt>
      <trkpt lat="43.17279" lon="6.63662">
        <ele>3.53</ele>
        <time>2017-05-14T11:20:48Z</time>
      </trkpt>
      <trkpt lat="43.17282" lon="6.63636">
        <ele>2.89</ele>
        <time>2017-05-14T11:21:04Z</time>
      </trkpt>
      <trkpt lat="43.17281" lon="6.6361">
        <ele>3.53</ele>
        <time>2017-05-14T11:21:25Z</time>
      </trkpt>
      <trkpt lat="43.17285" lon="6.63586">
        <ele>4.83</ele>
        <time>2017-05-14T11:21:47Z</time>
      </trkpt>
      <trkpt lat="43.17285" lon="6.63559">
        <ele>3.58</ele>
        <time>2017-05-14T11:22:06Z</time>
      </trkpt>
      <trkpt lat="43.17285" lon="6.63533">
        <ele>2.41</ele>
        <time>2017-05-14T11:22:25Z</time>
      </trkpt>
      <trkpt lat="43.17279" lon="6.63509">
        <ele>-1.49</ele>
        <time>2017-05-14T11:22:41Z</time>
      </trkpt>
      <trkpt lat="43.17275" lon="6.63484">
        <ele>0.62</ele>
        <time>2017-05-14T11:23:58Z</time>
      </trkpt>
      <trkpt lat="43.17274" lon="6.63459">
        <ele>3.32</ele>
        <time>2017-05-14T11:24:17Z</time>
      </trkpt>
      <trkpt lat="43.1727" lon="6.63434">
        <ele>-1.31</ele>
        <time>2017-05-14T11:24:35Z</time>
      </trkpt>
      <trkpt lat="43.17268" lon="6.63409">
        <ele>1.59</ele>
        <time>2017-05-14T11:24:54Z</time>
      </trkpt>
      <trkpt lat="43.17265" lon="6.63384">
        <ele>1.62</ele>
        <time>2017-05-14T11:25:10Z</time>
      </trkpt>
      <trkpt lat="43.17262" lon="6.63359">
        <ele>0.42</ele>
        <time>2017-05-14T11:25:33Z</time>
      </trkpt>
      <trkpt lat="43.17254" lon="6.63336">
        <ele>1.73</ele>
        <time>2017-05-14T11:25:53Z</time>
      </trkpt>
      <trkpt lat="43.17246" lon="6.63313">
        <ele>1.7</ele>
        <time>2017-05-14T11:26:10Z</time>
      </trkpt>
      <trkpt lat="43.17237" lon="6.63292">
        <ele>1.35</ele>
        <time>2017-05-14T11:26:29Z</time>
      </trkpt>
      <trkpt lat="43.17235" lon="6.63267">
        <ele>-4.45</ele>
        <time>2017-05-14T11:27:55Z</time>
      </trkpt>
      <trkpt lat="43.17221" lon="6.6325">
        <ele>14.6</ele>
        <time>2017-05-14T11:54:46Z</time>
      </trkpt>
      <trkpt lat="43.17211" lon="6.6323">
        <ele>10.64</ele>
        <time>2017-05-14T11:55:14Z</time>
      </trkpt>
      <trkpt lat="43.17193" lon="6.63224">
        <ele>8.93</ele>
        <time>2017-05-14T11:57:24Z</time>
      </trkpt>
      <trkpt lat="43.17179" lon="6.63207">
        <ele>0.73</ele>
        <time>2017-05-14T11:57:51Z</time>
      </trkpt>
      <trkpt lat="43.17163" lon="6.63194">
        <ele>1.24</ele>
        <time>2017-05-14T11:58:08Z</time>
      </trkpt>
      <trkpt lat="43.17144" lon="6.63193">
        <ele>8.41</ele>
        <time>2017-05-14T11:58:30Z</time>
      </trkpt>
      <trkpt lat="43.17127" lon="6.632">
        <ele>6.32</ele>
        <time>2017-05-14T11:58:46Z</time>
      </trkpt>
      <trkpt lat="43.17109" lon="6.63194">
        <ele>6.64</ele>
        <time>2017-05-14T11:59:05Z</time>
      </trkpt>
      <trkpt lat="43.17111" lon="6.6317">
        <ele>3.8</ele>
        <time>2017-05-14T11:59:20Z</time>
      </trkpt>
      <trkpt lat="43.1712" lon="6.63147">
        <ele>4.51</ele>
        <time>2017-05-14T11:59:38Z</time>
      </trkpt>
      <trkpt lat="43.17124" lon="6.63122">
        <ele>7.09</ele>
        <time>2017-05-14T11:59:58Z</time>
      </trkpt>
      <trkpt lat="43.17126" lon="6.63096">
        <ele>6.4</ele>
        <time>2017-05-14T12:00:16Z</time>
      </trkpt>
      <trkpt lat="43.17129" lon="6.6307">
        <ele>4.37</ele>
        <time>2017-05-14T12:00:38Z</time>
      </trkpt>
      <trkpt lat="43.1711" lon="6.63063">
        <ele>14.76</ele>
        <time>2017-05-14T12:00:57Z</time>
      </trkpt>
      <trkpt lat="43.17097" lon="6.63044">
        <ele>12.92</ele>
        <time>2017-05-14T12:01:15Z</time>
      </trkpt>
      <trkpt lat="43.17084" lon="6.63025">
        <ele>7.42</ele>
        <time>2017-05-14T12:01:38Z</time>
      </trkpt>
      <trkpt lat="43.17069" lon="6.63009">
        <ele>6.53</ele>
        <time>2017-05-14T12:01:58Z</time>
      </trkpt>
      <trkpt lat="43.17057" lon="6.62988">
        <ele>7.56</ele>
        <time>2017-05-14T12:02:20Z</time>
      </trkpt>
      <trkpt lat="43.17039" lon="6.62983">
        <ele>6.52</ele>
        <time>2017-05-14T12:02:42Z</time>
      </trkpt>
      <trkpt lat="43.17021" lon="6.62982">
        <ele>11.41</ele>
        <time>2017-05-14T12:03:11Z</time>
      </trkpt>
      <trkpt lat="43.17003" lon="6.6298">
        <ele>14.81</ele>
        <time>2017-05-14T12:03:30Z</time>
      </trkpt>
      <trkpt lat="43.16993" lon="6.62958">
        <ele>16.38</ele>
        <time>2017-05-14T12:04:12Z</time>
      </trkpt>
      <trkpt lat="43.17005" lon="6.62937">
        <ele>20.39</ele>
        <time>2017-05-14T12:05:11Z</time>
      </trkpt>
      <trkpt lat="43.17012" lon="6.62912">
        <ele>34.98</ele>
        <time>2017-05-14T12:05:54Z</time>
      </trkpt>
      <trkpt lat="43.16996" lon="6.62897">
        <ele>30.92</ele>
        <time>2017-05-14T12:06:13Z</time>
      </trkpt>
      <trkpt lat="43.16984" lon="6.62876">
        <ele>33.14</ele>
        <time>2017-05-14T12:06:36Z</time>
      </trkpt>
      <trkpt lat="43.1698" lon="6.62851">
        <ele>37.16</ele>
        <time>2017-05-14T12:07:04Z</time>
      </trkpt>
      <trkpt lat="43.16972" lon="6.62826">
        <ele>39.62</ele>
        <time>2017-05-14T12:07:40Z</time>
      </trkpt>
      <trkpt lat="43.16964" lon="6.62803">
        <ele>35.48</ele>
        <time>2017-05-14T12:08:02Z</time>
      </trkpt>
      <trkpt lat="43.16946" lon="6.62798">
        <ele>30.48</ele>
        <time>2017-05-14T12:08:34Z</time>
      </trkpt>
      <trkpt lat="43.16929" lon="6.62807">
        <ele>24.47</ele>
        <time>2017-05-14T12:09:17Z</time>
      </trkpt>
      <trkpt lat="43.16917" lon="6.62787">
        <ele>25.32</ele>
        <time>2017-05-14T12:09:33Z</time>
      </trkpt>
      <trkpt lat="43.16904" lon="6.6277">
        <ele>14.92</ele>
        <time>2017-05-14T12:09:59Z</time>
      </trkpt>
      <trkpt lat="43.16889" lon="6.62754">
        <ele>12.11</ele>
        <time>2017-05-14T12:10:16Z</time>
      </trkpt>
      <trkpt lat="43.16872" lon="6.62743">
        <ele>12.83</ele>
        <time>2017-05-14T12:10:32Z</time>
      </trkpt>
      <trkpt lat="43.16857" lon="6.62728">
        <ele>9.37</ele>
        <time>2017-05-14T12:10:56Z</time>
      </trkpt>
      <trkpt lat="43.16843" lon="6.62711">
        <ele>7.23</ele>
        <time>2017-05-14T12:11:19Z</time>
      </trkpt>
      <trkpt lat="43.16825" lon="6.62707">
        <ele>7.86</ele>
        <time>2017-05-14T12:11:38Z</time>
      </trkpt>
      <trkpt lat="43.16811" lon="6.62691">
        <ele>16.12</ele>
        <time>2017-05-14T12:12:12Z</time>
      </trkpt>
      <trkpt lat="43.16797" lon="6.62675">
        <ele>21.91</ele>
        <time>2017-05-14T12:12:39Z</time>
      </trkpt>
      <trkpt lat="43.16783" lon="6.62659">
        <ele>29.01</ele>
        <time>2017-05-14T12:12:57Z</time>
      </trkpt>
      <trkpt lat="43.16771" lon="6.62638">
        <ele>33.59</ele>
        <time>2017-05-14T12:13:23Z</time>
      </trkpt>
      <trkpt lat="43.16754" lon="6.62629">
        <ele>39.1</ele>
        <time>2017-05-14T12:13:52Z</time>
      </trkpt>
      <trkpt lat="43.16735" lon="6.62632">
        <ele>40.41</ele>
        <time>2017-05-14T12:14:12Z</time>
      </trkpt>
      <trkpt lat="43.16717" lon="6.62632">
        <ele>34.39</ele>
        <time>2017-05-14T12:14:34Z</time>
      </trkpt>
      <trkpt lat="43.16699" lon="6.62625">
        <ele>30.64</ele>
        <time>2017-05-14T12:14:53Z</time>
      </trkpt>
      <trkpt lat="43.16682" lon="6.62615">
        <ele>29.98</ele>
        <time>2017-05-14T12:15:14Z</time>
      </trkpt>
      <trkpt lat="43.16674" lon="6.62593">
        <ele>27.81</ele>
        <time>2017-05-14T12:15:55Z</time>
      </trkpt>
      <trkpt lat="43.16657" lon="6.6258">
        <ele>26.71</ele>
        <time>2017-05-14T12:16:10Z</time>
      </trkpt>
      <trkpt lat="43.16642" lon="6.62565">
        <ele>30.78</ele>
        <time>2017-05-14T12:16:32Z</time>
      </trkpt>
      <trkpt lat="43.16633" lon="6.62543">
        <ele>27.55</ele>
        <time>2017-05-14T12:16:53Z</time>
      </trkpt>
      <trkpt lat="43.16636" lon="6.62516">
        <ele>22.77</ele>
        <time>2017-05-14T12:17:07Z</time>
      </trkpt>
      <trkpt lat="43.16643" lon="6.62493">
        <ele>17.5</ele>
        <time>2017-05-14T12:17:33Z</time>
      </trkpt>
      <trkpt lat="43.16634" lon="6.6247">
        <ele>21.52</ele>
        <time>2017-05-14T12:17:49Z</time>
      </trkpt>
      <trkpt lat="43.16627" lon="6.62446">
        <ele>16.72</ele>
        <time>2017-05-14T12:18:10Z</time>
      </trkpt>
      <trkpt lat="43.16611" lon="6.62432">
        <ele>13.83</ele>
        <time>2017-05-14T12:18:35Z</time>
      </trkpt>
      <trkpt lat="43.16606" lon="6.62409">
        <ele>7.23</ele>
        <time>2017-05-14T12:19:04Z</time>
      </trkpt>
      <trkpt lat="43.16605" lon="6.62384">
        <ele>5.61</ele>
        <time>2017-05-14T12:19:29Z</time>
      </trkpt>
      <trkpt lat="43.16599" lon="6.62361">
        <ele>-3.58</ele>
        <time>2017-05-14T12:20:10Z</time>
      </trkpt>
      <trkpt lat="43.16581" lon="6.62351">
        <ele>3.36</ele>
        <time>2017-05-14T12:20:27Z</time>
      </trkpt>
      <trkpt lat="43.16571" lon="6.62329">
        <ele>-0.36</ele>
        <time>2017-05-14T12:20:47Z</time>
      </trkpt>
      <trkpt lat="43.16558" lon="6.62309">
        <ele>7.53</ele>
        <time>2017-05-14T12:21:13Z</time>
      </trkpt>
      <trkpt lat="43.16542" lon="6.62299">
        <ele>10.61</ele>
        <time>2017-05-14T12:21:24Z</time>
      </trkpt>
      <trkpt lat="43.16529" lon="6.62281">
        <ele>8.8</ele>
        <time>2017-05-14T12:21:50Z</time>
      </trkpt>
      <trkpt lat="43.16512" lon="6.62269">
        <ele>5.65</ele>
        <time>2017-05-14T12:22:09Z</time>
      </trkpt>
      <trkpt lat="43.16503" lon="6.62245">
        <ele>3.69</ele>
        <time>2017-05-14T12:22:29Z</time>
      </trkpt>
      <trkpt lat="43.16486" lon="6.62237">
        <ele>4.38</ele>
        <time>2017-05-14T12:22:43Z</time>
      </trkpt>
      <trkpt lat="43.16471" lon="6.6222">
        <ele>-1.27</ele>
        <time>2017-05-14T12:23:02Z</time>
      </trkpt>
      <trkpt lat="43.16455" lon="6.62205">
        <ele>-0.85</ele>
        <time>2017-05-14T12:23:17Z</time>
      </trkpt>
      <trkpt lat="43.1644" lon="6.6219">
        <ele>-3.39</ele>
        <time>2017-05-14T12:23:38Z</time>
      </trkpt>
      <trkpt lat="43.16423" lon="6.62181">
        <ele>-1.08</ele>
        <time>2017-05-14T12:24:00Z</time>
      </trkpt>
      <trkpt lat="43.16405" lon="6.62177">
        <ele>-3.37</ele>
        <time>2017-05-14T12:24:18Z</time>
      </trkpt>
      <trkpt lat="43.16385" lon="6.62174">
        <ele>-7.29</ele>
        <time>2017-05-14T12:24:36Z</time>
      </trkpt>
      <trkpt lat="43.16377" lon="6.62152">
        <ele>-5.65</ele>
        <time>2017-05-14T12:25:01Z</time>
      </trkpt>
      <trkpt lat="43.16358" lon="6.62142">
        <ele>-3.78</ele>
        <time>2017-05-14T12:25:19Z</time>
      </trkpt>
      <trkpt lat="43.1634" lon="6.62144">
        <ele>-1.47</ele>
        <time>2017-05-14T12:25:36Z</time>
      </trkpt>
      <trkpt lat="43.16321" lon="6.62139">
        <ele>-7.06</ele>
        <time>2017-05-14T12:25:54Z</time>
      </trkpt>
      <trkpt lat="43.16305" lon="6.62126">
        <ele>-9.47</ele>
        <time>2017-05-14T12:26:11Z</time>
      </trkpt>
      <trkpt lat="43.16286" lon="6.62122">
        <ele>-3.37</ele>
        <time>2017-05-14T12:26:33Z</time>
      </trkpt>
      <trkpt lat="43.16267" lon="6.62122">
        <ele>-1.74</ele>
        <time>2017-05-14T12:26:59Z</time>
      </trkpt>
      <trkpt lat="43.16247" lon="6.62127">
        <ele>-3.71</ele>
        <time>2017-05-14T12:27:38Z</time>
      </trkpt>
      <trkpt lat="43.1623" lon="6.62134">
        <ele>1.58</ele>
        <time>2017-05-14T12:27:57Z</time>
      </trkpt>
      <trkpt lat="43.16218" lon="6.62154">
        <ele>4.13</ele>
        <time>2017-05-14T12:28:13Z</time>
      </trkpt>
      <trkpt lat="43.16199" lon="6.62151">
        <ele>5.61</ele>
        <time>2017-05-14T12:28:36Z</time>
      </trkpt>
      <trkpt lat="43.16184" lon="6.62167">
        <ele>2.92</ele>
        <time>2017-05-14T12:29:09Z</time>
      </trkpt>
      <trkpt lat="43.16172" lon="6.62186">
        <ele>11.59</ele>
        <time>2017-05-14T12:29:22Z</time>
      </trkpt>
      <trkpt lat="43.16155" lon="6.62193">
        <ele>17.23</ele>
        <time>2017-05-14T12:29:48Z</time>
      </trkpt>
      <trkpt lat="43.16139" lon="6.62206">
        <ele>19.86</ele>
        <time>2017-05-14T12:30:11Z</time>
      </trkpt>
      <trkpt lat="43.16121" lon="6.62203">
        <ele>27.41</ele>
        <time>2017-05-14T12:30:34Z</time>
      </trkpt>
      <trkpt lat="43.16103" lon="6.62195">
        <ele>23.94</ele>
        <time>2017-05-14T12:30:53Z</time>
      </trkpt>
      <trkpt lat="43.16088" lon="6.62178">
        <ele>23.8</ele>
        <time>2017-05-14T12:31:15Z</time>
      </trkpt>
      <trkpt lat="43.16075" lon="6.62161">
        <ele>20.77</ele>
        <time>2017-05-14T12:31:37Z</time>
      </trkpt>
      <trkpt lat="43.16064" lon="6.6214">
        <ele>26.23</ele>
        <time>2017-05-14T12:31:56Z</time>
      </trkpt>
      <trkpt lat="43.16071" lon="6.62115">
        <ele>31.44</ele>
        <time>2017-05-14T12:32:22Z</time>
      </trkpt>
      <trkpt lat="43.16063" lon="6.62092">
        <ele>30.3</ele>
        <time>2017-05-14T12:33:07Z</time>
      </trkpt>
      <trkpt lat="43.16048" lon="6.62077">
        <ele>39.27</ele>
        <time>2017-05-14T12:33:36Z</time>
      </trkpt>
      <trkpt lat="43.16038" lon="6.62055">
        <ele>41.39</ele>
        <time>2017-05-14T12:34:01Z</time>
      </trkpt>
      <trkpt lat="43.1603" lon="6.62032">
        <ele>47.9</ele>
        <time>2017-05-14T12:34:41Z</time>
      </trkpt>
      <trkpt lat="43.16015" lon="6.62018">
        <ele>57.3</ele>
        <time>2017-05-14T12:35:07Z</time>
      </trkpt>
      <trkpt lat="43.15997" lon="6.62009">
        <ele>56.83</ele>
        <time>2017-05-14T12:36:12Z</time>
      </trkpt>
      <trkpt lat="43.16011" lon="6.61993">
        <ele>67.14</ele>
        <time>2017-05-14T12:46:47Z</time>
      </trkpt>
      <trkpt lat="43.1603" lon="6.61995">
        <ele>60</ele>
        <time>2017-05-14T12:47:22Z</time>
      </trkpt>
      <trkpt lat="43.16047" lon="6.61976">
        <ele>56.22</ele>
        <time>2017-05-14T12:47:38Z</time>
      </trkpt>
      <trkpt lat="43.16065" lon="6.6198">
        <ele>63.64</ele>
        <time>2017-05-14T12:48:08Z</time>
      </trkpt>
      <trkpt lat="43.16085" lon="6.61978">
        <ele>63.75</ele>
        <time>2017-05-14T12:48:39Z</time>
      </trkpt>
      <trkpt lat="43.16102" lon="6.61986">
        <ele>66.54</ele>
        <time>2017-05-14T12:48:53Z</time>
      </trkpt>
      <trkpt lat="43.16117" lon="6.61972">
        <ele>67.53</ele>
        <time>2017-05-14T12:49:14Z</time>
      </trkpt>
      <trkpt lat="43.16129" lon="6.61953">
        <ele>59.86</ele>
        <time>2017-05-14T12:49:35Z</time>
      </trkpt>
      <trkpt lat="43.16147" lon="6.61943">
        <ele>57.63</ele>
        <time>2017-05-14T12:49:53Z</time>
      </trkpt>
      <trkpt lat="43.16167" lon="6.61944">
        <ele>60.52</ele>
        <time>2017-05-14T12:50:11Z</time>
      </trkpt>
      <trkpt lat="43.16185" lon="6.6195">
        <ele>60.94</ele>
        <time>2017-05-14T12:50:26Z</time>
      </trkpt>
      <trkpt lat="43.16204" lon="6.61945">
        <ele>61.62</ele>
        <time>2017-05-14T12:50:42Z</time>
      </trkpt>
      <trkpt lat="43.16222" lon="6.61944">
        <ele>60.44</ele>
        <time>2017-05-14T12:50:58Z</time>
      </trkpt>
      <trkpt lat="43.16241" lon="6.61937">
        <ele>60.32</ele>
        <time>2017-05-14T12:51:16Z</time>
      </trkpt>
      <trkpt lat="43.16254" lon="6.6192">
        <ele>60.02</ele>
        <time>2017-05-14T12:51:34Z</time>
      </trkpt>
      <trkpt lat="43.16269" lon="6.61907">
        <ele>60.87</ele>
        <time>2017-05-14T12:51:51Z</time>
      </trkpt>
      <trkpt lat="43.16287" lon="6.61899">
        <ele>62.41</ele>
        <time>2017-05-14T12:52:16Z</time>
      </trkpt>
      <trkpt lat="43.16306" lon="6.619">
        <ele>62.35</ele>
        <time>2017-05-14T12:52:35Z</time>
      </trkpt>
      <trkpt lat="43.16325" lon="6.61895">
        <ele>63.29</ele>
        <time>2017-05-14T12:52:49Z</time>
      </trkpt>
      <trkpt lat="43.16339" lon="6.61878">
        <ele>61.23</ele>
        <time>2017-05-14T12:53:04Z</time>
      </trkpt>
      <trkpt lat="43.16359" lon="6.61879">
        <ele>65.4</ele>
        <time>2017-05-14T12:53:20Z</time>
      </trkpt>
      <trkpt lat="43.16376" lon="6.6187">
        <ele>69.22</ele>
        <time>2017-05-14T12:53:39Z</time>
      </trkpt>
      <trkpt lat="43.16394" lon="6.61862">
        <ele>76.61</ele>
        <time>2017-05-14T12:53:57Z</time>
      </trkpt>
      <trkpt lat="43.16412" lon="6.61858">
        <ele>74.65</ele>
        <time>2017-05-14T12:54:13Z</time>
      </trkpt>
      <trkpt lat="43.16428" lon="6.61845">
        <ele>76.28</ele>
        <time>2017-05-14T12:54:31Z</time>
      </trkpt>
      <trkpt lat="43.16443" lon="6.61826">
        <ele>70.6</ele>
        <time>2017-05-14T12:54:52Z</time>
      </trkpt>
      <trkpt lat="43.16461" lon="6.61824">
        <ele>72.29</ele>
        <time>2017-05-14T12:55:09Z</time>
      </trkpt>
      <trkpt lat="43.16479" lon="6.61817">
        <ele>72.68</ele>
        <time>2017-05-14T12:55:23Z</time>
      </trkpt>
      <trkpt lat="43.16496" lon="6.61806">
        <ele>72.23</ele>
        <time>2017-05-14T12:55:40Z</time>
      </trkpt>
      <trkpt lat="43.16518" lon="6.61798">
        <ele>79.13</ele>
        <time>2017-05-14T12:55:58Z</time>
      </trkpt>
      <trkpt lat="43.16533" lon="6.61784">
        <ele>77.66</ele>
        <time>2017-05-14T12:56:55Z</time>
      </trkpt>
      <trkpt lat="43.16551" lon="6.61775">
        <ele>80.61</ele>
        <time>2017-05-14T12:57:11Z</time>
      </trkpt>
      <trkpt lat="43.16567" lon="6.61761">
        <ele>82.31</ele>
        <time>2017-05-14T12:57:30Z</time>
      </trkpt>
      <trkpt lat="43.16584" lon="6.61746">
        <ele>81.33</ele>
        <time>2017-05-14T12:57:58Z</time>
      </trkpt>
      <trkpt lat="43.16598" lon="6.61728">
        <ele>84</ele>
        <time>2017-05-14T12:58:22Z</time>
      </trkpt>
      <trkpt lat="43.16611" lon="6.6171">
        <ele>78.28</ele>
        <time>2017-05-14T12:58:56Z</time>
      </trkpt>
      <trkpt lat="43.16624" lon="6.61692">
        <ele>83.54</ele>
        <time>2017-05-14T12:59:09Z</time>
      </trkpt>
      <trkpt lat="43.16639" lon="6.61677">
        <ele>86.86</ele>
        <time>2017-05-14T12:59:23Z</time>
      </trkpt>
      <trkpt lat="43.16657" lon="6.61669">
        <ele>81.3</ele>
        <time>2017-05-14T12:59:40Z</time>
      </trkpt>
      <trkpt lat="43.16675" lon="6.61655">
        <ele>78.65</ele>
        <time>2017-05-14T12:59:52Z</time>
      </trkpt>
      <trkpt lat="43.16692" lon="6.61642">
        <ele>82.39</ele>
        <time>2017-05-14T13:00:14Z</time>
      </trkpt>
      <trkpt lat="43.16704" lon="6.61623">
        <ele>81.26</ele>
        <time>2017-05-14T13:00:30Z</time>
      </trkpt>
      <trkpt lat="43.16721" lon="6.61611">
        <ele>88.27</ele>
        <time>2017-05-14T13:00:47Z</time>
      </trkpt>
      <trkpt lat="43.16737" lon="6.61599">
        <ele>96.3</ele>
        <time>2017-05-14T13:01:03Z</time>
      </trkpt>
      <trkpt lat="43.16734" lon="6.61574">
        <ele>100.62</ele>
        <time>2017-05-14T13:01:17Z</time>
      </trkpt>
      <trkpt lat="43.16742" lon="6.61551">
        <ele>100.32</ele>
        <time>2017-05-14T13:01:35Z</time>
      </trkpt>
      <trkpt lat="43.16746" lon="6.61525">
        <ele>99.58</ele>
        <time>2017-05-14T13:01:59Z</time>
      </trkpt>
      <trkpt lat="43.16754" lon="6.61503">
        <ele>96.96</ele>
        <time>2017-05-14T13:02:14Z</time>
      </trkpt>
      <trkpt lat="43.16764" lon="6.61481">
        <ele>95.65</ele>
        <time>2017-05-14T13:02:33Z</time>
      </trkpt>
      <trkpt lat="43.16764" lon="6.61454">
        <ele>95.22</ele>
        <time>2017-05-14T13:02:51Z</time>
      </trkpt>
      <trkpt lat="43.16777" lon="6.61436">
        <ele>97.89</ele>
        <time>2017-05-14T13:03:10Z</time>
      </trkpt>
      <trkpt lat="43.16782" lon="6.61409">
        <ele>88.4</ele>
        <time>2017-05-14T13:03:25Z</time>
      </trkpt>
      <trkpt lat="43.16792" lon="6.61387">
        <ele>86.15</ele>
        <time>2017-05-14T13:03:44Z</time>
      </trkpt>
      <trkpt lat="43.16807" lon="6.61371">
        <ele>88.29</ele>
        <time>2017-05-14T13:04:03Z</time>
      </trkpt>
      <trkpt lat="43.16821" lon="6.61354">
        <ele>88.99</ele>
        <time>2017-05-14T13:04:24Z</time>
      </trkpt>
      <trkpt lat="43.16838" lon="6.61342">
        <ele>94.95</ele>
        <time>2017-05-14T13:04:42Z</time>
      </trkpt>
      <trkpt lat="43.16852" lon="6.61326">
        <ele>89.33</ele>
        <time>2017-05-14T13:04:56Z</time>
      </trkpt>
      <trkpt lat="43.16862" lon="6.61306">
        <ele>93.92</ele>
        <time>2017-05-14T13:05:14Z</time>
      </trkpt>
      <trkpt lat="43.16882" lon="6.61296">
        <ele>99.85</ele>
        <time>2017-05-14T13:05:28Z</time>
      </trkpt>
      <trkpt lat="43.16897" lon="6.6128">
        <ele>89.89</ele>
        <time>2017-05-14T13:05:52Z</time>
      </trkpt>
      <trkpt lat="43.16906" lon="6.61257">
        <ele>98.47</ele>
        <time>2017-05-14T13:06:13Z</time>
      </trkpt>
      <trkpt lat="43.1691" lon="6.61233">
        <ele>89.95</ele>
        <time>2017-05-14T13:06:37Z</time>
      </trkpt>
      <trkpt lat="43.1692" lon="6.6121">
        <ele>91.31</ele>
        <time>2017-05-14T13:06:49Z</time>
      </trkpt>
      <trkpt lat="43.16933" lon="6.61192">
        <ele>93.64</ele>
        <time>2017-05-14T13:07:05Z</time>
      </trkpt>
      <trkpt lat="43.16944" lon="6.61171">
        <ele>95.6</ele>
        <time>2017-05-14T13:07:23Z</time>
      </trkpt>
      <trkpt lat="43.16961" lon="6.61165">
        <ele>97.4</ele>
        <time>2017-05-14T13:07:40Z</time>
      </trkpt>
      <trkpt lat="43.16981" lon="6.61167">
        <ele>98.51</ele>
        <time>2017-05-14T13:08:16Z</time>
      </trkpt>
      <trkpt lat="43.16999" lon="6.61174">
        <ele>102.57</ele>
        <time>2017-05-14T13:08:33Z</time>
      </trkpt>
      <trkpt lat="43.17017" lon="6.61182">
        <ele>102.5</ele>
        <time>2017-05-14T13:08:48Z</time>
      </trkpt>
      <trkpt lat="43.17036" lon="6.61182">
        <ele>95.62</ele>
        <time>2017-05-14T13:09:12Z</time>
      </trkpt>
      <trkpt lat="43.17048" lon="6.6116">
        <ele>91.63</ele>
        <time>2017-05-14T13:09:32Z</time>
      </trkpt>
      <trkpt lat="43.17055" lon="6.61134">
        <ele>88.53</ele>
        <time>2017-05-14T13:09:48Z</time>
      </trkpt>
      <trkpt lat="43.17065" lon="6.61114">
        <ele>86.99</ele>
        <time>2017-05-14T13:10:01Z</time>
      </trkpt>
      <trkpt lat="43.1707" lon="6.61089">
        <ele>85.59</ele>
        <time>2017-05-14T13:10:22Z</time>
      </trkpt>
      <trkpt lat="43.17072" lon="6.61064">
        <ele>82.14</ele>
        <time>2017-05-14T13:10:36Z</time>
      </trkpt>
      <trkpt lat="43.17072" lon="6.61038">
        <ele>77.6</ele>
        <time>2017-05-14T13:10:53Z</time>
      </trkpt>
      <trkpt lat="43.17084" lon="6.61019">
        <ele>81.72</ele>
        <time>2017-05-14T13:11:34Z</time>
      </trkpt>
      <trkpt lat="43.171" lon="6.61031">
        <ele>78.34</ele>
        <time>2017-05-14T13:11:56Z</time>
      </trkpt>
      <trkpt lat="43.17108" lon="6.61055">
        <ele>70.54</ele>
        <time>2017-05-14T13:12:49Z</time>
      </trkpt>
      <trkpt lat="43.17109" lon="6.6108">
        <ele>65.61</ele>
        <time>2017-05-14T13:13:11Z</time>
      </trkpt>
      <trkpt lat="43.17108" lon="6.61105">
        <ele>59.74</ele>
        <time>2017-05-14T13:13:34Z</time>
      </trkpt>
      <trkpt lat="43.17109" lon="6.6113">
        <ele>64.65</ele>
        <time>2017-05-14T13:14:25Z</time>
      </trkpt>
      <trkpt lat="43.17119" lon="6.6115">
        <ele>60.64</ele>
        <time>2017-05-14T13:14:52Z</time>
      </trkpt>
      <trkpt lat="43.17133" lon="6.61167">
        <ele>61.34</ele>
        <time>2017-05-14T13:15:05Z</time>
      </trkpt>
      <trkpt lat="43.17151" lon="6.61174">
        <ele>59.85</ele>
        <time>2017-05-14T13:15:21Z</time>
      </trkpt>
      <trkpt lat="43.17168" lon="6.61183">
        <ele>54.9</ele>
        <time>2017-05-14T13:15:39Z</time>
      </trkpt>
      <trkpt lat="43.17186" lon="6.6118">
        <ele>55.33</ele>
        <time>2017-05-14T13:16:00Z</time>
      </trkpt>
      <trkpt lat="43.17192" lon="6.61157">
        <ele>49.69</ele>
        <time>2017-05-14T13:16:22Z</time>
      </trkpt>
      <trkpt lat="43.17178" lon="6.61142">
        <ele>43.43</ele>
        <time>2017-05-14T13:16:40Z</time>
      </trkpt>
      <trkpt lat="43.17165" lon="6.61122">
        <ele>42.92</ele>
        <time>2017-05-14T13:16:55Z</time>
      </trkpt>
      <trkpt lat="43.1717" lon="6.61096">
        <ele>38.52</ele>
        <time>2017-05-14T13:17:13Z</time>
      </trkpt>
      <trkpt lat="43.17184" lon="6.61077">
        <ele>35.12</ele>
        <time>2017-05-14T13:17:27Z</time>
      </trkpt>
      <trkpt lat="43.17193" lon="6.61054">
        <ele>36.88</ele>
        <time>2017-05-14T13:17:48Z</time>
      </trkpt>
      <trkpt lat="43.17202" lon="6.61033">
        <ele>33.54</ele>
        <time>2017-05-14T13:18:05Z</time>
      </trkpt>
      <trkpt lat="43.17198" lon="6.61007">
        <ele>33.05</ele>
        <time>2017-05-14T13:18:24Z</time>
      </trkpt>
      <trkpt lat="43.17201" lon="6.60982">
        <ele>27.44</ele>
        <time>2017-05-14T13:18:41Z</time>
      </trkpt>
      <trkpt lat="43.17221" lon="6.60982">
        <ele>24.72</ele>
        <time>2017-05-14T13:18:58Z</time>
      </trkpt>
      <trkpt lat="43.17236" lon="6.60998">
        <ele>25.64</ele>
        <time>2017-05-14T13:19:16Z</time>
      </trkpt>
      <trkpt lat="43.17244" lon="6.61021">
        <ele>20.79</ele>
        <time>2017-05-14T13:19:34Z</time>
      </trkpt>
      <trkpt lat="43.17249" lon="6.61045">
        <ele>21.91</ele>
        <time>2017-05-14T13:19:50Z</time>
      </trkpt>
      <trkpt lat="43.17258" lon="6.61067">
        <ele>20.3</ele>
        <time>2017-05-14T13:20:07Z</time>
      </trkpt>
      <trkpt lat="43.17272" lon="6.61084">
        <ele>19.53</ele>
        <time>2017-05-14T13:20:21Z</time>
      </trkpt>
      <trkpt lat="43.17289" lon="6.61096">
        <ele>14.35</ele>
        <time>2017-05-14T13:20:36Z</time>
      </trkpt>
      <trkpt lat="43.17305" lon="6.61107">
        <ele>13.51</ele>
        <time>2017-05-14T13:20:50Z</time>
      </trkpt>
      <trkpt lat="43.17319" lon="6.61123">
        <ele>11.18</ele>
        <time>2017-05-14T13:21:14Z</time>
      </trkpt>
      <trkpt lat="43.17339" lon="6.61128">
        <ele>10.21</ele>
        <time>2017-05-14T13:21:30Z</time>
      </trkpt>
      <trkpt lat="43.17354" lon="6.6111">
        <ele>9.77</ele>
        <time>2017-05-14T13:21:51Z</time>
      </trkpt>
      <trkpt lat="43.17363" lon="6.61132">
        <ele>15.2</ele>
        <time>2017-05-14T13:22:44Z</time>
      </trkpt>
      <trkpt lat="43.17355" lon="6.61155">
        <ele>13.86</ele>
        <time>2017-05-14T13:22:56Z</time>
      </trkpt>
      <trkpt lat="43.17363" lon="6.61178">
        <ele>10.4</ele>
        <time>2017-05-14T13:23:12Z</time>
      </trkpt>
      <trkpt lat="43.17363" lon="6.61204">
        <ele>16.71</ele>
        <time>2017-05-14T13:23:43Z</time>
      </trkpt>
      <trkpt lat="43.17365" lon="6.61229">
        <ele>14.61</ele>
        <time>2017-05-14T13:24:09Z</time>
      </trkpt>
      <trkpt lat="43.17366" lon="6.61204">
        <ele>18.7</ele>
        <time>2017-05-14T13:25:17Z</time>
      </trkpt>
      <trkpt lat="43.17376" lon="6.61183">
        <ele>19.78</ele>
        <time>2017-05-14T13:26:16Z</time>
      </trkpt>
      <trkpt lat="43.17394" lon="6.61177">
        <ele>26.62</ele>
        <time>2017-05-14T13:26:43Z</time>
      </trkpt>
      <trkpt lat="43.17411" lon="6.61187">
        <ele>26.92</ele>
        <time>2017-05-14T13:27:20Z</time>
      </trkpt>
      <trkpt lat="43.17427" lon="6.61176">
        <ele>27.55</ele>
        <time>2017-05-14T13:28:51Z</time>
      </trkpt>
      <trkpt lat="43.17448" lon="6.61181">
        <ele>22.32</ele>
        <time>2017-05-14T13:29:04Z</time>
      </trkpt>
      <trkpt lat="43.17465" lon="6.6117">
        <ele>37.4</ele>
        <time>2017-05-14T13:29:29Z</time>
      </trkpt>
      <trkpt lat="43.17474" lon="6.61148">
        <ele>46.04</ele>
        <time>2017-05-14T13:29:59Z</time>
      </trkpt>
      <trkpt lat="43.17487" lon="6.61131">
        <ele>45.58</ele>
        <time>2017-05-14T13:30:27Z</time>
      </trkpt>
      <trkpt lat="43.17499" lon="6.6111">
        <ele>48.75</ele>
        <time>2017-05-14T13:30:52Z</time>
      </trkpt>
      <trkpt lat="43.17513" lon="6.61093">
        <ele>57.32</ele>
        <time>2017-05-14T13:31:21Z</time>
      </trkpt>
      <trkpt lat="43.1753" lon="6.61103">
        <ele>53.65</ele>
        <time>2017-05-14T13:31:43Z</time>
      </trkpt>
      <trkpt lat="43.17545" lon="6.61088">
        <ele>66.83</ele>
        <time>2017-05-14T13:32:39Z</time>
      </trkpt>
      <trkpt lat="43.17562" lon="6.61098">
        <ele>67.62</ele>
        <time>2017-05-14T13:33:26Z</time>
      </trkpt>
      <trkpt lat="43.17582" lon="6.61109">
        <ele>67.62</ele>
        <time>2017-05-14T13:33:43Z</time>
      </trkpt>
      <trkpt lat="43.17596" lon="6.61125">
        <ele>68.61</ele>
        <time>2017-05-14T13:34:15Z</time>
      </trkpt>
      <trkpt lat="43.17615" lon="6.61122">
        <ele>79.91</ele>
        <time>2017-05-14T13:34:56Z</time>
      </trkpt>
      <trkpt lat="43.17634" lon="6.61123">
        <ele>82.29</ele>
        <time>2017-05-14T13:35:29Z</time>
      </trkpt>
      <trkpt lat="43.17651" lon="6.61111">
        <ele>86.53</ele>
        <time>2017-05-14T13:35:55Z</time>
      </trkpt>
      <trkpt lat="43.17667" lon="6.61098">
        <ele>84.91</ele>
        <time>2017-05-14T13:36:12Z</time>
      </trkpt>
      <trkpt lat="43.17684" lon="6.61108">
        <ele>88.31</ele>
        <time>2017-05-14T13:36:33Z</time>
      </trkpt>
      <trkpt lat="43.17673" lon="6.6113">
        <ele>92.69</ele>
        <time>2017-05-14T13:38:53Z</time>
      </trkpt>
      <trkpt lat="43.17665" lon="6.61153">
        <ele>98.46</ele>
        <time>2017-05-14T13:39:17Z</time>
      </trkpt>
      <trkpt lat="43.17659" lon="6.61177">
        <ele>101.28</ele>
        <time>2017-05-14T13:39:40Z</time>
      </trkpt>
      <trkpt lat="43.17654" lon="6.612">
        <ele>102.56</ele>
        <time>2017-05-14T13:40:00Z</time>
      </trkpt>
      <trkpt lat="43.17659" lon="6.61224">
        <ele>106.52</ele>
        <time>2017-05-14T13:40:23Z</time>
      </trkpt>
      <trkpt lat="43.17667" lon="6.61247">
        <ele>113.5</ele>
        <time>2017-05-14T13:40:48Z</time>
      </trkpt>
      <trkpt lat="43.17679" lon="6.61266">
        <ele>108.87</ele>
        <time>2017-05-14T13:41:11Z</time>
      </trkpt>
      <trkpt lat="43.17693" lon="6.61282">
        <ele>110.61</ele>
        <time>2017-05-14T13:41:47Z</time>
      </trkpt>
      <trkpt lat="43.17709" lon="6.61298">
        <ele>116.76</ele>
        <time>2017-05-14T13:42:08Z</time>
      </trkpt>
      <trkpt lat="43.17725" lon="6.6131">
        <ele>118.52</ele>
        <time>2017-05-14T13:42:29Z</time>
      </trkpt>
      <trkpt lat="43.17742" lon="6.61322">
        <ele>120.73</ele>
        <time>2017-05-14T13:42:51Z</time>
      </trkpt>
      <trkpt lat="43.1776" lon="6.61326">
        <ele>123.59</ele>
        <time>2017-05-14T13:43:11Z</time>
      </trkpt>
      <trkpt lat="43.17779" lon="6.61329">
        <ele>125.25</ele>
        <time>2017-05-14T13:43:31Z</time>
      </trkpt>
      <trkpt lat="43.17797" lon="6.61328">
        <ele>128.3</ele>
        <time>2017-05-14T13:43:54Z</time>
      </trkpt>
      <trkpt lat="43.17815" lon="6.61328">
        <ele>131.62</ele>
        <time>2017-05-14T13:44:22Z</time>
      </trkpt>
      <trkpt lat="43.17832" lon="6.61339">
        <ele>137.48</ele>
        <time>2017-05-14T13:44:42Z</time>
      </trkpt>
      <trkpt lat="43.17849" lon="6.6133">
        <ele>137.57</ele>
        <time>2017-05-14T13:45:00Z</time>
      </trkpt>
      <trkpt lat="43.17866" lon="6.61342">
        <ele>135.65</ele>
        <time>2017-05-14T13:45:22Z</time>
      </trkpt>
      <trkpt lat="43.17883" lon="6.61351">
        <ele>136.6</ele>
        <time>2017-05-14T13:45:46Z</time>
      </trkpt>
      <trkpt lat="43.17901" lon="6.6136">
        <ele>138.39</ele>
        <time>2017-05-14T13:46:01Z</time>
      </trkpt>
      <trkpt lat="43.17913" lon="6.61381">
        <ele>144.03</ele>
        <time>2017-05-14T13:46:25Z</time>
      </trkpt>
      <trkpt lat="43.17924" lon="6.61401">
        <ele>144.22</ele>
        <time>2017-05-14T13:46:39Z</time>
      </trkpt>
      <trkpt lat="43.17939" lon="6.61416">
        <ele>149.32</ele>
        <time>2017-05-14T13:46:58Z</time>
      </trkpt>
      <trkpt lat="43.1795" lon="6.61436">
        <ele>152.38</ele>
        <time>2017-05-14T13:47:16Z</time>
      </trkpt>
      <trkpt lat="43.17963" lon="6.61454">
        <ele>156.67</ele>
        <time>2017-05-14T13:48:04Z</time>
      </trkpt>
      <trkpt lat="43.17979" lon="6.61466">
        <ele>155.99</ele>
        <time>2017-05-14T13:48:18Z</time>
      </trkpt>
      <trkpt lat="43.17997" lon="6.61473">
        <ele>159.64</ele>
        <time>2017-05-14T13:48:40Z</time>
      </trkpt>
      <trkpt lat="43.18015" lon="6.61469">
        <ele>157.2</ele>
        <time>2017-05-14T14:08:34Z</time>
      </trkpt>
      <trkpt lat="43.18035" lon="6.61469">
        <ele>154.34</ele>
        <time>2017-05-14T14:08:57Z</time>
      </trkpt>
      <trkpt lat="43.18053" lon="6.61466">
        <ele>156.6</ele>
        <time>2017-05-14T14:09:12Z</time>
      </trkpt>
      <trkpt lat="43.18072" lon="6.61468">
        <ele>157.32</ele>
        <time>2017-05-14T14:09:35Z</time>
      </trkpt>
      <trkpt lat="43.1809" lon="6.61469">
        <ele>154.35</ele>
        <time>2017-05-14T14:09:47Z</time>
      </trkpt>
      <trkpt lat="43.18109" lon="6.61472">
        <ele>150.64</ele>
        <time>2017-05-14T14:10:11Z</time>
      </trkpt>
      <trkpt lat="43.18129" lon="6.61476">
        <ele>147.63</ele>
        <time>2017-05-14T14:10:28Z</time>
      </trkpt>
      <trkpt lat="43.18146" lon="6.6147">
        <ele>152.6</ele>
        <time>2017-05-14T14:10:43Z</time>
      </trkpt>
      <trkpt lat="43.18165" lon="6.61473">
        <ele>150.36</ele>
        <time>2017-05-14T14:10:54Z</time>
      </trkpt>
      <trkpt lat="43.18184" lon="6.61472">
        <ele>151.34</ele>
        <time>2017-05-14T14:11:16Z</time>
      </trkpt>
      <trkpt lat="43.18202" lon="6.61476">
        <ele>147.67</ele>
        <time>2017-05-14T14:11:28Z</time>
      </trkpt>
      <trkpt lat="43.18221" lon="6.61478">
        <ele>148.01</ele>
        <time>2017-05-14T14:11:46Z</time>
      </trkpt>
      <trkpt lat="43.18239" lon="6.61484">
        <ele>151.62</ele>
        <time>2017-05-14T14:12:03Z</time>
      </trkpt>
      <trkpt lat="43.18256" lon="6.61497">
        <ele>145.93</ele>
        <time>2017-05-14T14:12:18Z</time>
      </trkpt>
      <trkpt lat="43.18273" lon="6.61508">
        <ele>150.02</ele>
        <time>2017-05-14T14:12:33Z</time>
      </trkpt>
      <trkpt lat="43.1829" lon="6.61516">
        <ele>154.23</ele>
        <time>2017-05-14T14:12:51Z</time>
      </trkpt>
      <trkpt lat="43.18307" lon="6.61526">
        <ele>154.01</ele>
        <time>2017-05-14T14:13:01Z</time>
      </trkpt>
      <trkpt lat="43.18323" lon="6.6154">
        <ele>151.38</ele>
        <time>2017-05-14T14:13:20Z</time>
      </trkpt>
      <trkpt lat="43.18341" lon="6.61545">
        <ele>152.84</ele>
        <time>2017-05-14T14:13:33Z</time>
      </trkpt>
      <trkpt lat="43.18359" lon="6.61543">
        <ele>156.59</ele>
        <time>2017-05-14T14:13:53Z</time>
      </trkpt>
      <trkpt lat="43.18377" lon="6.61547">
        <ele>158.04</ele>
        <time>2017-05-14T14:14:06Z</time>
      </trkpt>
      <trkpt lat="43.18398" lon="6.61554">
        <ele>153.29</ele>
        <time>2017-05-14T14:14:27Z</time>
      </trkpt>
      <trkpt lat="43.18418" lon="6.61558">
        <ele>152.51</ele>
        <time>2017-05-14T14:14:43Z</time>
      </trkpt>
      <trkpt lat="43.18437" lon="6.61561">
        <ele>149.53</ele>
        <time>2017-05-14T14:14:59Z</time>
      </trkpt>
      <trkpt lat="43.18455" lon="6.6156">
        <ele>151.52</ele>
        <time>2017-05-14T14:15:14Z</time>
      </trkpt>
      <trkpt lat="43.18474" lon="6.6156">
        <ele>149.59</ele>
        <time>2017-05-14T14:15:28Z</time>
      </trkpt>
      <trkpt lat="43.18494" lon="6.61561">
        <ele>149.62</ele>
        <time>2017-05-14T14:15:44Z</time>
      </trkpt>
      <trkpt lat="43.18513" lon="6.61561">
        <ele>148.67</ele>
        <time>2017-05-14T14:15:57Z</time>
      </trkpt>
      <trkpt lat="43.18531" lon="6.61556">
        <ele>151.59</ele>
        <time>2017-05-14T14:16:14Z</time>
      </trkpt>
      <trkpt lat="43.18549" lon="6.61554">
        <ele>152.31</ele>
        <time>2017-05-14T14:16:28Z</time>
      </trkpt>
      <trkpt lat="43.18567" lon="6.61548">
        <ele>152.61</ele>
        <time>2017-05-14T14:16:43Z</time>
      </trkpt>
      <trkpt lat="43.18586" lon="6.61543">
        <ele>154.48</ele>
        <time>2017-05-14T14:17:00Z</time>
      </trkpt>
      <trkpt lat="43.18603" lon="6.61551">
        <ele>159.69</ele>
        <time>2017-05-14T14:17:17Z</time>
      </trkpt>
      <trkpt lat="43.18621" lon="6.61557">
        <ele>159.64</ele>
        <time>2017-05-14T14:17:40Z</time>
      </trkpt>
      <trkpt lat="43.18639" lon="6.61549">
        <ele>160.65</ele>
        <time>2017-05-14T14:17:58Z</time>
      </trkpt>
      <trkpt lat="43.18657" lon="6.61538">
        <ele>161.6</ele>
        <time>2017-05-14T14:18:13Z</time>
      </trkpt>
      <trkpt lat="43.18675" lon="6.61533">
        <ele>165.53</ele>
        <time>2017-05-14T14:18:31Z</time>
      </trkpt>
      <trkpt lat="43.18693" lon="6.61525">
        <ele>165.77</ele>
        <time>2017-05-14T14:18:48Z</time>
      </trkpt>
      <trkpt lat="43.18713" lon="6.6152">
        <ele>164.63</ele>
        <time>2017-05-14T14:19:01Z</time>
      </trkpt>
      <trkpt lat="43.18732" lon="6.6151">
        <ele>165.68</ele>
        <time>2017-05-14T14:19:18Z</time>
      </trkpt>
      <trkpt lat="43.18751" lon="6.61507">
        <ele>164.65</ele>
        <time>2017-05-14T14:19:33Z</time>
      </trkpt>
      <trkpt lat="43.1877" lon="6.61507">
        <ele>161.62</ele>
        <time>2017-05-14T14:19:49Z</time>
      </trkpt>
      <trkpt lat="43.18789" lon="6.61507">
        <ele>163.25</ele>
        <time>2017-05-14T14:20:08Z</time>
      </trkpt>
      <trkpt lat="43.18807" lon="6.61504">
        <ele>161.65</ele>
        <time>2017-05-14T14:20:23Z</time>
      </trkpt>
      <trkpt lat="43.18826" lon="6.61501">
        <ele>157.62</ele>
        <time>2017-05-14T14:20:38Z</time>
      </trkpt>
      <trkpt lat="43.18844" lon="6.61497">
        <ele>160.54</ele>
        <time>2017-05-14T14:21:00Z</time>
      </trkpt>
      <trkpt lat="43.18861" lon="6.61504">
        <ele>161.73</ele>
        <time>2017-05-14T14:21:12Z</time>
      </trkpt>
      <trkpt lat="43.1888" lon="6.61499">
        <ele>157.3</ele>
        <time>2017-05-14T14:21:29Z</time>
      </trkpt>
      <trkpt lat="43.18902" lon="6.61499">
        <ele>157.13</ele>
        <time>2017-05-14T14:21:45Z</time>
      </trkpt>
      <trkpt lat="43.18918" lon="6.61488">
        <ele>164.53</ele>
        <time>2017-05-14T14:22:00Z</time>
      </trkpt>
      <trkpt lat="43.18937" lon="6.61485">
        <ele>162.8</ele>
        <time>2017-05-14T14:22:22Z</time>
      </trkpt>
      <trkpt lat="43.18955" lon="6.61477">
        <ele>167.62</ele>
        <time>2017-05-14T14:22:41Z</time>
      </trkpt>
      <trkpt lat="43.18973" lon="6.61468">
        <ele>170.56</ele>
        <time>2017-05-14T14:22:57Z</time>
      </trkpt>
      <trkpt lat="43.18987" lon="6.61453">
        <ele>173.59</ele>
        <time>2017-05-14T14:23:19Z</time>
      </trkpt>
      <trkpt lat="43.19005" lon="6.61441">
        <ele>177.68</ele>
        <time>2017-05-14T14:23:38Z</time>
      </trkpt>
      <trkpt lat="43.19022" lon="6.61432">
        <ele>178.63</ele>
        <time>2017-05-14T14:23:52Z</time>
      </trkpt>
      <trkpt lat="43.1904" lon="6.61425">
        <ele>180.59</ele>
        <time>2017-05-14T14:24:08Z</time>
      </trkpt>
      <trkpt lat="43.19044" lon="6.61401">
        <ele>179.84</ele>
        <time>2017-05-14T14:24:41Z</time>
      </trkpt>
      <trkpt lat="43.19049" lon="6.61376">
        <ele>179.07</ele>
        <time>2017-05-14T14:25:08Z</time>
      </trkpt>
      <trkpt lat="43.1906" lon="6.61356">
        <ele>180.92</ele>
        <time>2017-05-14T14:25:18Z</time>
      </trkpt>
      <trkpt lat="43.19072" lon="6.61336">
        <ele>177.61</ele>
        <time>2017-05-14T14:25:30Z</time>
      </trkpt>
      <trkpt lat="43.19081" lon="6.61314">
        <ele>180.63</ele>
        <time>2017-05-14T14:25:47Z</time>
      </trkpt>
      <trkpt lat="43.19099" lon="6.61307">
        <ele>182.92</ele>
        <time>2017-05-14T14:26:02Z</time>
      </trkpt>
      <trkpt lat="43.19115" lon="6.61295">
        <ele>179.24</ele>
        <time>2017-05-14T14:26:22Z</time>
      </trkpt>
      <trkpt lat="43.19134" lon="6.61289">
        <ele>180.36</ele>
        <time>2017-05-14T14:26:42Z</time>
      </trkpt>
      <trkpt lat="43.19152" lon="6.61291">
        <ele>178.7</ele>
        <time>2017-05-14T14:26:56Z</time>
      </trkpt>
      <trkpt lat="43.1917" lon="6.61278">
        <ele>175.04</ele>
        <time>2017-05-14T14:27:15Z</time>
      </trkpt>
      <trkpt lat="43.19185" lon="6.61262">
        <ele>177.99</ele>
        <time>2017-05-14T14:27:29Z</time>
      </trkpt>
      <trkpt lat="43.19196" lon="6.61242">
        <ele>176.65</ele>
        <time>2017-05-14T14:28:05Z</time>
      </trkpt>
      <trkpt lat="43.19215" lon="6.61239">
        <ele>163.24</ele>
        <time>2017-05-14T14:28:17Z</time>
      </trkpt>
      <trkpt lat="43.1923" lon="6.61223">
        <ele>160.71</ele>
        <time>2017-05-14T14:28:34Z</time>
      </trkpt>
      <trkpt lat="43.19246" lon="6.61208">
        <ele>161.6</ele>
        <time>2017-05-14T14:28:48Z</time>
      </trkpt>
      <trkpt lat="43.19261" lon="6.61192">
        <ele>163.34</ele>
        <time>2017-05-14T14:29:05Z</time>
      </trkpt>
      <trkpt lat="43.19275" lon="6.61173">
        <ele>163.52</ele>
        <time>2017-05-14T14:29:21Z</time>
      </trkpt>
      <trkpt lat="43.19285" lon="6.61151">
        <ele>162.18</ele>
        <time>2017-05-14T14:29:34Z</time>
      </trkpt>
      <trkpt lat="43.19294" lon="6.61128">
        <ele>161.68</ele>
        <time>2017-05-14T14:29:52Z</time>
      </trkpt>
      <trkpt lat="43.19307" lon="6.61111">
        <ele>163.49</ele>
        <time>2017-05-14T14:30:04Z</time>
      </trkpt>
      <trkpt lat="43.19322" lon="6.61095">
        <ele>163.59</ele>
        <time>2017-05-14T14:30:23Z</time>
      </trkpt>
      <trkpt lat="43.19332" lon="6.61072">
        <ele>168.2</ele>
        <time>2017-05-14T14:30:37Z</time>
      </trkpt>
      <trkpt lat="43.19349" lon="6.61059">
        <ele>169.6</ele>
        <time>2017-05-14T14:30:57Z</time>
      </trkpt>
      <trkpt lat="43.19363" lon="6.61043">
        <ele>167.85</ele>
        <time>2017-05-14T14:31:20Z</time>
      </trkpt>
      <trkpt lat="43.1935" lon="6.61061">
        <ele>169.62</ele>
        <time>2017-05-14T14:32:03Z</time>
      </trkpt>
      <trkpt lat="43.19358" lon="6.61038">
        <ele>165.15</ele>
        <time>2017-05-14T14:32:42Z</time>
      </trkpt>
      <trkpt lat="43.19369" lon="6.61019">
        <ele>161.32</ele>
        <time>2017-05-14T14:32:56Z</time>
      </trkpt>
      <trkpt lat="43.19384" lon="6.61005">
        <ele>158.9</ele>
        <time>2017-05-14T14:33:13Z</time>
      </trkpt>
      <trkpt lat="43.19402" lon="6.60996">
        <ele>155.52</ele>
        <time>2017-05-14T14:33:29Z</time>
      </trkpt>
      <trkpt lat="43.19417" lon="6.60981">
        <ele>158.44</ele>
        <time>2017-05-14T14:33:47Z</time>
      </trkpt>
      <trkpt lat="43.19431" lon="6.60966">
        <ele>156.13</ele>
        <time>2017-05-14T14:34:07Z</time>
      </trkpt>
      <trkpt lat="43.19449" lon="6.60964">
        <ele>151.94</ele>
        <time>2017-05-14T14:34:21Z</time>
      </trkpt>
      <trkpt lat="43.19466" lon="6.60953">
        <ele>144.34</ele>
        <time>2017-05-14T14:34:36Z</time>
      </trkpt>
      <trkpt lat="43.19482" lon="6.60939">
        <ele>139.31</ele>
        <time>2017-05-14T14:34:51Z</time>
      </trkpt>
      <trkpt lat="43.19496" lon="6.60923">
        <ele>143.31</ele>
        <time>2017-05-14T14:35:12Z</time>
      </trkpt>
      <trkpt lat="43.19514" lon="6.60919">
        <ele>142.91</ele>
        <time>2017-05-14T14:35:29Z</time>
      </trkpt>
      <trkpt lat="43.19531" lon="6.60907">
        <ele>139.63</ele>
        <time>2017-05-14T14:35:47Z</time>
      </trkpt>
      <trkpt lat="43.19547" lon="6.60893">
        <ele>139.24</ele>
        <time>2017-05-14T14:36:02Z</time>
      </trkpt>
    </trkseg>
  </trk>
</gpx>